Observation data for Earth on 02/24/2021      Previous  Date  Next       Current Mesonet Observations  Soil Data  Daily Summary Page  Observations in Plain Language
KEA1 240600Z 25011KT 11/M09 A2989 RMK A01 T01071093  RH  024%=      5-min Rain = 0
KEA1 240601Z 25011KT 11/M09 A2989 RMK A01 T01051093  RH  024%=      5-min Rain = 0
KEA1 240602Z 25011KT 10/M09 A2989 RMK A01 T01031092  RH  024%=      5-min Rain = 0
KEA1 240603Z 25011KT 10/M09 A2989 RMK A01 T01031092  RH  024%=      5-min Rain = 0
KEA1 240604Z 25010KT 10/M09 A2989 RMK A01 T01031092  RH  024%=      5-min Rain = 0
KEA1 240605Z 25010KT 10/M09 A2989 RMK A01 T01031093  RH  024%=      5-min Rain = 0
KEA1 240606Z 25010KT 10/M09 A2989 RMK A01 T01011093  RH  025%=      5-min Rain = 0
KEA1 240607Z 25011KT 10/M09 A2989 RMK A01 T00991094  RH  025%=      5-min Rain = 0
KEA1 240608Z 25011KT 10/M09 A2989 RMK A01 T00981094  RH  025%=      5-min Rain = 0
KEA1 240609Z 25011KT 10/M09 A2989 RMK A01 T00971094  RH  025%=      5-min Rain = 0
KEA1 240610Z 25011KT 10/M10 A2989 RMK A01 T00961095  RH  025%=      5-min Rain = 0
KEA1 240611Z 24012KT 10/M09 A2989 RMK A01 T00961094  RH  025%=      5-min Rain = 0
KEA1 240612Z 24012KT 10/M10 A2989 RMK A01 T00961095  RH  025%=      5-min Rain = 0
KEA1 240613Z 24012KT 10/M10 A2989 RMK A01 T00961096  RH  025%=      5-min Rain = 0
KEA1 240614Z 24012KT 10/M10 A2989 RMK A01 T00961096  RH  025%=      5-min Rain = 0
KEA1 240615Z 24013KT 10/M10 A2989 RMK A01 T00971096  RH  025%=      5-min Rain = 0
KEA1 240616Z 24012KT 10/M10 A2989 RMK A01 T00991096  RH  024%=      5-min Rain = 0
KEA1 240617Z 24011KT 10/M10 A2989 RMK A01 T01001096  RH  024%=      5-min Rain = 0
KEA1 240618Z 24012KT 10/M10 A2989 RMK A01 T01011096  RH  024%=      5-min Rain = 0
KEA1 240619Z 24012KT 10/M10 A2989 RMK A01 T01021096  RH  024%=      5-min Rain = 0
KEA1 240620Z 24010KT 10/M10 A2989 RMK A01 T01031096  RH  024%=      5-min Rain = 0
KEA1 240621Z 25011KT 10/M10 A2989 RMK A01 T01021095  RH  024%=      5-min Rain = 0
KEA1 240622Z 24012KT 10/M10 A2989 RMK A01 T01031096  RH  024%=      5-min Rain = 0
KEA1 240623Z 24013KT 10/M10 A2989 RMK A01 T01041095  RH  024%=      5-min Rain = 0
KEA1 240624Z 24012KT 10/M10 A2989 RMK A01 T01041096  RH  023%=      5-min Rain = 0
KEA1 240625Z 25013KT 11/M10 A2989 RMK A01 T01051095  RH  024%=      5-min Rain = 0
KEA1 240626Z 25013KT 10/M10 A2989 RMK A01 T01041095  RH  024%=      5-min Rain = 0
KEA1 240627Z 24011KT 10/M10 A2989 RMK A01 T01031095  RH  024%=      5-min Rain = 0
KEA1 240628Z 25012KT 10/M10 A2989 RMK A01 T01021095  RH  024%=      5-min Rain = 0
KEA1 240629Z 25012KT 10/M10 A2989 RMK A01 T01011095  RH  024%=      5-min Rain = 0
KEA1 240630Z 25012KT 10/M10 A2989 RMK A01 T01001095  RH  024%=      5-min Rain = 0
KEA1 240631Z 25012KT 10/M10 A2989 RMK A01 T00991095  RH  024%=      5-min Rain = 0
KEA1 240632Z 25012KT 10/M10 A2989 RMK A01 T00991095  RH  025%=      5-min Rain = 0
KEA1 240633Z 25012KT 10/M09 A299 RMK A01 T00981094  RH  025%=      5-min Rain = 0
KEA1 240634Z 25012KT 10/M10 A299 RMK A01 T00961095  RH  025%=      5-min Rain = 0
KEA1 240635Z 25012KT 10/M10 A299 RMK A01 T00951095  RH  025%=      5-min Rain = 0
KEA1 240636Z 25012KT 10/M10 A299 RMK A01 T00951095  RH  025%=      5-min Rain = 0
KEA1 240637Z 25012KT 09/M10 A299 RMK A01 T00941095  RH  025%=      5-min Rain = 0
KEA1 240638Z 25011KT 09/M10 A299 RMK A01 T00931095  RH  025%=      5-min Rain = 0
KEA1 240639Z 25011KT 09/M10 A299 RMK A01 T00921095  RH  026%=      5-min Rain = 0
KEA1 240640Z 27010KT 09/M10 A2991 RMK A01 T00901095  RH  026%=      5-min Rain = 0
KEA1 240641Z 28009KT 09/M09 A2991 RMK A01 T00891093  RH  026%=      5-min Rain = 0
KEA1 240642Z 28010KT 09/M09 A2991 RMK A01 T00881092  RH  027%=      5-min Rain = 0
KEA1 240643Z 27010KT 09/M09 A2991 RMK A01 T00861088  RH  028%=      5-min Rain = 0
KEA1 240644Z 26011KT 08/M09 A2991 RMK A01 T00841086  RH  029%=      5-min Rain = 0
KEA1 240645Z 25011KT 08/M09 A299 RMK A01 T00831086  RH  029%=      5-min Rain = 0
KEA1 240646Z 25012KT 08/M09 A299 RMK A01 T00821086  RH  029%=      5-min Rain = 0
KEA1 240647Z 25012KT 08/M09 A299 RMK A01 T00821087  RH  029%=      5-min Rain = 0
KEA1 240648Z 26010KT 08/M09 A2991 RMK A01 T00831088  RH  029%=      5-min Rain = 0
KEA1 240649Z 27010KT 08/M09 A2991 RMK A01 T00841088  RH  029%=      5-min Rain = 0
KEA1 240650Z 28010KT 08/M09 A2991 RMK A01 T00831087  RH  029%=      5-min Rain = 0
KEA1 240651Z 28011KT 08/M09 A2991 RMK A01 T00821087  RH  029%=      5-min Rain = 0
KEA1 240652Z 27011KT 08/M08 A2991 RMK A01 T00811084  RH  030%=      5-min Rain = 0
KEA1 240653Z 27011KT 08/M08 A2991 RMK A01 T00781084  RH  031%=      5-min Rain = 0
KEA1 240654Z 27011KT 08/M08 A2992 RMK A01 T00771084  RH  031%=      5-min Rain = 0
KEA1 240655Z 27010KT 08/M08 A2992 RMK A01 T00761084  RH  031%=      5-min Rain = 0
KEA1 240656Z 30009KT 08/M08 A2992 RMK A01 T00751083  RH  031%=      5-min Rain = 0
KEA1 240657Z 30010KT 07/M08 A2993 RMK A01 T00741084  RH  032%=      5-min Rain = 0
KEA1 240658Z 30009KT 07/M08 A2993 RMK A01 T00721084  RH  032%=      5-min Rain = 0
KEA1 240659Z 29009KT 07/M08 A2993 RMK A01 T00711084  RH  032%=      5-min Rain = 0
KEA1 240700Z 29009KT 07/M09 A2993 RMK A01 T00701085  RH  032%=      5-min Rain = 0
KEA1 240701Z 29009KT 07/M09 A2993 RMK A01 T00691085  RH  032%=      5-min Rain = 0
KEA1 240702Z 29009KT 07/M09 A2993 RMK A01 T00681086  RH  032%=      5-min Rain = 0
KEA1 240703Z 29008KT 07/M09 A2993 RMK A01 T00681085  RH  033%=      5-min Rain = 0
KEA1 240704Z 28009KT 07/M08 A2993 RMK A01 T00671084  RH  033%=      5-min Rain = 0
KEA1 240705Z 27009KT 07/M08 A2993 RMK A01 T00651084  RH  034%=      5-min Rain = 0
KEA1 240706Z 27009KT 06/M08 A2993 RMK A01 T00641083  RH  034%=      5-min Rain = 0
KEA1 240707Z 28008KT 06/M08 A2994 RMK A01 T00631083  RH  034%=      5-min Rain = 0
KEA1 240708Z 31006KT 06/M08 A2994 RMK A01 T00631083  RH  034%=      5-min Rain = 0
KEA1 240709Z 35009KT 06/M08 A2994 RMK A01 T00611084  RH  035%=      5-min Rain = 0
KEA1 240710Z 35010KT 06/M09 A2994 RMK A01 T00561086  RH  035%=      5-min Rain = 0
KEA1 240711Z 32009KT 05/M09 A2994 RMK A01 T00501086  RH  037%=      5-min Rain = 0
KEA1 240712Z 27008KT 05/M09 A2994 RMK A01 T00481085  RH  038%=      5-min Rain = 0
KEA1 240713Z 25009KT 05/M08 A2993 RMK A01 T00481084  RH  038%=      5-min Rain = 0
KEA1 240714Z 26009KT 05/M08 A2993 RMK A01 T00471083  RH  038%=      5-min Rain = 0
KEA1 240715Z 27008KT 05/M08 A2994 RMK A01 T00471084  RH  038%=      5-min Rain = 0
KEA1 240716Z 26008KT 05/M08 A2994 RMK A01 T00461084  RH  038%=      5-min Rain = 0
KEA1 240717Z 27008KT 05/M08 A2993 RMK A01 T00461083  RH  039%=      5-min Rain = 0
KEA1 240718Z 26009KT 05/M08 A2993 RMK A01 T00471082  RH  039%=      5-min Rain = 0
KEA1 240719Z 26008KT 05/M08 A2993 RMK A01 T00481082  RH  038%=      5-min Rain = 0
KEA1 240720Z 26008KT 05/M08 A2993 RMK A01 T00491082  RH  038%=      5-min Rain = 0
KEA1 240721Z 26008KT 05/M08 A2993 RMK A01 T00491082  RH  038%=      5-min Rain = 0
KEA1 240722Z 26008KT 05/M08 A2993 RMK A01 T00491083  RH  038%=      5-min Rain = 0
KEA1 240723Z 25009KT 05/M08 A2993 RMK A01 T00491083  RH  038%=      5-min Rain = 0
KEA1 240724Z 25009KT 05/M08 A2993 RMK A01 T00481084  RH  038%=      5-min Rain = 0
KEA1 240725Z 25010KT 05/M08 A2993 RMK A01 T00471083  RH  038%=      5-min Rain = 0
KEA1 240726Z 25010KT 05/M08 A2993 RMK A01 T00481083  RH  038%=      5-min Rain = 0
KEA1 240727Z 25011KT 05/M08 A2993 RMK A01 T00471084  RH  038%=      5-min Rain = 0
KEA1 240728Z 25012KT 05/M08 A2993 RMK A01 T00481083  RH  038%=      5-min Rain = 0
KEA1 240729Z 25011KT 05/M08 A2993 RMK A01 T00491084  RH  037%=      5-min Rain = 0
KEA1 240730Z 25011KT 05/M08 A2993 RMK A01 T00501084  RH  037%=      5-min Rain = 0
KEA1 240731Z 25012KT 05/M09 A2993 RMK A01 T00511085  RH  037%=      5-min Rain = 0
KEA1 240732Z 25011KT 05/M09 A2993 RMK A01 T00521085  RH  036%=      5-min Rain = 0
KEA1 240733Z 25011KT 05/M09 A2993 RMK A01 T00531085  RH  036%=      5-min Rain = 0
KEA1 240734Z 26011KT 05/M09 A2994 RMK A01 T00531085  RH  036%=      5-min Rain = 0
KEA1 240735Z 27010KT 05/M09 A2994 RMK A01 T00531086  RH  036%=      5-min Rain = 0
KEA1 240736Z 28009KT 05/M09 A2995 RMK A01 T00531085  RH  036%=      5-min Rain = 0
KEA1 240737Z 28009KT 05/M09 A2995 RMK A01 T00521085  RH  036%=      5-min Rain = 0
KEA1 240738Z 29008KT 05/M09 A2995 RMK A01 T00521085  RH  036%=      5-min Rain = 0
KEA1 240739Z 28007KT 05/M08 A2995 RMK A01 T00521082  RH  037%=      5-min Rain = 0
KEA1 240740Z 27011KT 05/M08 A2995 RMK A01 T00511081  RH  038%=      5-min Rain = 0
KEA1 240741Z 31012KT 05/M08 A2996 RMK A01 T00531080  RH  038%=      5-min Rain = 0
KEA1 240742Z 30014G19KT 05/M08 A2997 RMK A01 T00531081  RH  037%=      5-min Rain = 0
KEA1 240743Z 31015KT 06/M08 A2997 RMK A01 T00591080  RH  036%=      5-min Rain = 0
KEA1 240744Z 32012KT 06/M08 A2998 RMK A01 T00641081  RH  035%=      5-min Rain = 0
KEA1 240745Z 32014KT 06/M08 A2998 RMK A01 T00611084  RH  035%=      5-min Rain = 0
KEA1 240746Z 32014KT 06/M08 A2998 RMK A01 T00591084  RH  035%=      5-min Rain = 0
KEA1 240747Z 32014KT 06/M08 A2998 RMK A01 T00591083  RH  035%=      5-min Rain = 0
KEA1 240748Z 32014KT 06/M08 A2998 RMK A01 T00591082  RH  036%=      5-min Rain = 0
KEA1 240749Z 33015KT 06/M08 A2999 RMK A01 T00591080  RH  036%=      5-min Rain = 0
KEA1 240750Z 33016G21KT 06/M08 A2999 RMK A01 T00611076  RH  037%=      5-min Rain = 0
KEA1 240751Z 33016KT 07/M07 A2999 RMK A01 T00671072  RH  037%=      5-min Rain = 0
KEA1 240752Z 33015KT 07/M07 A2999 RMK A01 T00711070  RH  036%=      5-min Rain = 0
KEA1 240753Z 33015G20KT 07/M07 A2999 RMK A01 T00741069  RH  035%=      5-min Rain = 0
KEA1 240754Z 33016KT 08/M07 A2999 RMK A01 T00771067  RH  035%=      5-min Rain = 0
KEA1 240755Z 33015KT 08/M07 A2999 RMK A01 T00821065  RH  035%=      5-min Rain = 0
KEA1 240756Z 33012G18KT 08/M07 A2999 RMK A01 T00841067  RH  034%=      5-min Rain = 0
KEA1 240757Z 33013KT 08/M07 A2999 RMK A01 T00841068  RH  034%=      5-min Rain = 0
KEA1 240758Z 33015KT 08/M07 A2999 RMK A01 T00841067  RH  034%=      5-min Rain = 0
KEA1 240759Z 33012KT 09/M07 A2999 RMK A01 T00851069  RH  033%=      5-min Rain = 0
KEA1 240800Z 33011KT 08/M07 A2999 RMK A01 T00831071  RH  033%=      5-min Rain = 0
KEA1 240801Z 33012KT 08/M07 A2999 RMK A01 T00801071  RH  033%=      5-min Rain = 0
KEA1 240802Z 33013KT 08/M07 A2999 RMK A01 T00781069  RH  034%=      5-min Rain = 0
KEA1 240803Z 33014G19KT 08/M07 A2999 RMK A01 T00781067  RH  035%=      5-min Rain = 0
KEA1 240804Z 34015KT 08/M06 A2999 RMK A01 T00791064  RH  036%=      5-min Rain = 0
KEA1 240805Z 34011KT 08/M06 A2999 RMK A01 T00801061  RH  036%=      5-min Rain = 0
KEA1 240806Z 34013KT 08/M06 A30 RMK A01 T00801062  RH  036%=      5-min Rain = 0
KEA1 240807Z 34012KT 08/M06 A30 RMK A01 T00781062  RH  036%=      5-min Rain = 0
KEA1 240808Z 34012KT 08/M06 A30 RMK A01 T00781061  RH  037%=      5-min Rain = 0
KEA1 240809Z 34013KT 08/M06 A30 RMK A01 T00771059  RH  037%=      5-min Rain = 0
KEA1 240810Z 34013KT 08/M06 A30 RMK A01 T00761058  RH  038%=      5-min Rain = 0
KEA1 240811Z 34013KT 08/M06 A30 RMK A01 T00751058  RH  038%=      5-min Rain = 0
KEA1 240812Z 34011KT 08/M06 A30 RMK A01 T00751057  RH  039%=      5-min Rain = 0
KEA1 240813Z 34012KT 07/M06 A30 RMK A01 T00741057  RH  039%=      5-min Rain = 0
KEA1 240814Z 35011KT 07/M06 A30 RMK A01 T00741056  RH  039%=      5-min Rain = 0
KEA1 240815Z 34011KT 07/M06 A30 RMK A01 T00741056  RH  039%=      5-min Rain = 0
KEA1 240816Z 34011KT 07/M06 A30 RMK A01 T00721056  RH  040%=      5-min Rain = 0
KEA1 240817Z 35011KT 07/M06 A30 RMK A01 T00711055  RH  040%=      5-min Rain = 0
KEA1 240818Z 35010KT 07/M05 A30 RMK A01 T00721054  RH  040%=      5-min Rain = 0
KEA1 240819Z 35010KT 07/M05 A30 RMK A01 T00711054  RH  041%=      5-min Rain = 0
KEA1 240820Z 35010KT 07/M05 A30 RMK A01 T00701054  RH  041%=      5-min Rain = 0
KEA1 240821Z 35010KT 07/M05 A30 RMK A01 T00691053  RH  041%=      5-min Rain = 0
KEA1 240822Z 35009KT 07/M05 A30 RMK A01 T00691053  RH  042%=      5-min Rain = 0
KEA1 240823Z 35009KT 07/M05 A30 RMK A01 T00671052  RH  042%=      5-min Rain = 0
KEA1 240824Z 35009KT 07/M05 A3001 RMK A01 T00661052  RH  042%=      5-min Rain = 0
KEA1 240825Z 35009KT 07/M05 A3001 RMK A01 T00651052  RH  043%=      5-min Rain = 0
KEA1 240826Z 35009KT 07/M05 A3001 RMK A01 T00651051  RH  043%=      5-min Rain = 0
KEA1 240827Z 35009KT 07/M05 A3001 RMK A01 T00651051  RH  044%=      5-min Rain = 0
KEA1 240828Z 35009KT 06/M05 A3001 RMK A01 T00641050  RH  044%=      5-min Rain = 0
KEA1 240829Z 36009KT 06/M05 A3001 RMK A01 T00641050  RH  044%=      5-min Rain = 0
KEA1 240830Z 36009KT 06/M05 A3001 RMK A01 T00631050  RH  044%=      5-min Rain = 0
KEA1 240831Z 35010KT 06/M05 A3001 RMK A01 T00631049  RH  045%=      5-min Rain = 0
KEA1 240832Z 36010KT 06/M05 A3001 RMK A01 T00621049  RH  045%=      5-min Rain = 0
KEA1 240833Z 36009KT 06/M05 A3001 RMK A01 T00621049  RH  045%=      5-min Rain = 0
KEA1 240834Z 36009KT 06/M05 A3001 RMK A01 T00611049  RH  045%=      5-min Rain = 0
KEA1 240835Z 36010KT 06/M05 A3001 RMK A01 T00601049  RH  046%=      5-min Rain = 0
KEA1 240836Z 36010KT 06/M05 A3001 RMK A01 T00591049  RH  046%=      5-min Rain = 0
KEA1 240837Z 00010KT 06/M05 A3001 RMK A01 T00591048  RH  046%=      5-min Rain = 0
KEA1 240838Z 00010KT 06/M05 A3001 RMK A01 T00581048  RH  046%=      5-min Rain = 0
KEA1 240839Z 00011KT 06/M05 A3001 RMK A01 T00581048  RH  046%=      5-min Rain = 0
KEA1 240840Z 35010KT 06/M05 A3001 RMK A01 T00581047  RH  047%=      5-min Rain = 0
KEA1 240841Z 36010KT 06/M05 A3001 RMK A01 T00581047  RH  047%=      5-min Rain = 0
KEA1 240842Z 00011KT 06/M05 A3001 RMK A01 T00581047  RH  047%=      5-min Rain = 0
KEA1 240843Z 00011KT 06/M05 A3001 RMK A01 T00581047  RH  047%=      5-min Rain = 0
KEA1 240844Z 00010KT 06/M05 A3001 RMK A01 T00571047  RH  047%=      5-min Rain = 0
KEA1 240845Z 00012KT 06/M05 A3001 RMK A01 T00571047  RH  047%=      5-min Rain = 0
KEA1 240846Z 00012KT 06/M05 A3001 RMK A01 T00581045  RH  047%=      5-min Rain = 0
KEA1 240847Z 00012KT 06/M05 A3001 RMK A01 T00601045  RH  047%=      5-min Rain = 0
KEA1 240848Z 00011KT 06/M05 A3001 RMK A01 T00601045  RH  047%=      5-min Rain = 0
KEA1 240849Z 00012KT 06/M05 A3001 RMK A01 T00591046  RH  047%=      5-min Rain = 0
KEA1 240850Z 01013KT 06/M05 A3001 RMK A01 T00591046  RH  047%=      5-min Rain = 0
KEA1 240851Z 01013KT 06/M05 A3001 RMK A01 T00591045  RH  047%=      5-min Rain = 0
KEA1 240852Z 00012KT 06/M05 A3001 RMK A01 T00591045  RH  047%=      5-min Rain = 0
KEA1 240853Z 01013KT 06/M05 A3001 RMK A01 T00591045  RH  047%=      5-min Rain = 0
KEA1 240854Z 01012KT 06/M05 A3001 RMK A01 T00591045  RH  047%=      5-min Rain = 0
KEA1 240855Z 01012KT 06/M05 A3002 RMK A01 T00591045  RH  047%=      5-min Rain = 0
KEA1 240856Z 01013KT 06/M05 A3002 RMK A01 T00581045  RH  047%=      5-min Rain = 0
KEA1 240857Z 01012KT 06/M04 A3002 RMK A01 T00591044  RH  048%=      5-min Rain = 0
KEA1 240858Z 01013KT 06/M04 A3002 RMK A01 T00581044  RH  048%=      5-min Rain = 0
KEA1 240859Z 01012KT 06/M04 A3002 RMK A01 T00581044  RH  048%=      5-min Rain = 0
KEA1 240900Z 00012KT 06/M04 A3002 RMK A01 T00581044  RH  048%=      5-min Rain = 0
KEA1 240901Z 01011KT 06/M04 A3002 RMK A01 T00581044  RH  048%=      5-min Rain = 0
KEA1 240902Z 00011KT 06/M04 A3002 RMK A01 T00571044  RH  048%=      5-min Rain = 0
KEA1 240903Z 01011KT 06/M05 A3002 RMK A01 T00561045  RH  048%=      5-min Rain = 0
KEA1 240904Z 01012KT 06/M04 A3002 RMK A01 T00561044  RH  049%=      5-min Rain = 0
KEA1 240905Z 00012KT 06/M04 A3002 RMK A01 T00551044  RH  049%=      5-min Rain = 0
KEA1 240906Z 01012KT 06/M04 A3002 RMK A01 T00551044  RH  049%=      5-min Rain = 0
KEA1 240907Z 00012KT 06/M04 A3002 RMK A01 T00551044  RH  049%=      5-min Rain = 0
KEA1 240908Z 00012KT 06/M04 A3002 RMK A01 T00551044  RH  049%=      5-min Rain = 0
KEA1 240909Z 00012KT 06/M04 A3002 RMK A01 T00551044  RH  049%=      5-min Rain = 0
KEA1 240910Z 36012KT 06/M04 A3002 RMK A01 T00561044  RH  049%=      5-min Rain = 0
KEA1 240911Z 00012KT 06/M04 A3002 RMK A01 T00561044  RH  049%=      5-min Rain = 0
KEA1 240912Z 00012KT 06/M04 A3002 RMK A01 T00561043  RH  049%=      5-min Rain = 0
KEA1 240913Z 00012KT 06/M04 A3002 RMK A01 T00551044  RH  049%=      5-min Rain = 0
KEA1 240914Z 36011KT 06/M04 A3003 RMK A01 T00551044  RH  049%=      5-min Rain = 0
KEA1 240915Z 36012KT 05/M04 A3003 RMK A01 T00541044  RH  049%=      5-min Rain = 0
KEA1 240916Z 36011KT 05/M04 A3002 RMK A01 T00541044  RH  049%=      5-min Rain = 0
KEA1 240917Z 36011KT 05/M04 A3003 RMK A01 T00531044  RH  049%=      5-min Rain = 0
KEA1 240918Z 36010KT 05/M05 A3003 RMK A01 T00521045  RH  050%=      5-min Rain = 0
KEA1 240919Z 00010KT 05/M05 A3003 RMK A01 T00501046  RH  050%=      5-min Rain = 0
KEA1 240920Z 36010KT 05/M05 A3003 RMK A01 T00491046  RH  050%=      5-min Rain = 0
KEA1 240921Z 00010KT 05/M05 A3003 RMK A01 T00491045  RH  051%=      5-min Rain = 0
KEA1 240922Z 36011KT 05/M05 A3003 RMK A01 T00481045  RH  051%=      5-min Rain = 0
KEA1 240923Z 00012KT 05/M05 A3003 RMK A01 T00481046  RH  051%=      5-min Rain = 0
KEA1 240924Z 00013KT 05/M05 A3003 RMK A01 T00491045  RH  051%=      5-min Rain = 0
KEA1 240925Z 00013KT 05/M04 A3003 RMK A01 T00511044  RH  050%=      5-min Rain = 0
KEA1 240926Z 00012KT 05/M04 A3003 RMK A01 T00511044  RH  050%=      5-min Rain = 0
KEA1 240927Z 00011KT 05/M05 A3003 RMK A01 T00501045  RH  050%=      5-min Rain = 0
KEA1 240928Z 00011KT 05/M05 A3003 RMK A01 T00491045  RH  050%=      5-min Rain = 0
KEA1 240929Z 00011KT 05/M05 A3003 RMK A01 T00491045  RH  051%=      5-min Rain = 0
KEA1 240930Z 01011KT 05/M05 A3003 RMK A01 T00481045  RH  051%=      5-min Rain = 0
KEA1 240931Z 01011KT 05/M05 A3003 RMK A01 T00471046  RH  051%=      5-min Rain = 0
KEA1 240932Z 01011KT 05/M05 A3003 RMK A01 T00461046  RH  051%=      5-min Rain = 0
KEA1 240933Z 00011KT 05/M05 A3003 RMK A01 T00461046  RH  052%=      5-min Rain = 0
KEA1 240934Z 01011KT 05/M05 A3003 RMK A01 T00461045  RH  052%=      5-min Rain = 0
KEA1 240935Z 00011KT 05/M05 A3003 RMK A01 T00461045  RH  052%=      5-min Rain = 0
KEA1 240936Z 01010KT 05/M05 A3003 RMK A01 T00461045  RH  052%=      5-min Rain = 0
KEA1 240937Z 01011KT 05/M05 A3003 RMK A01 T00461045  RH  052%=      5-min Rain = 0
KEA1 240938Z 00010KT 05/M05 A3003 RMK A01 T00451045  RH  052%=      5-min Rain = 0
KEA1 240939Z 00010KT 05/M05 A3003 RMK A01 T00451045  RH  052%=      5-min Rain = 0
KEA1 240940Z 00009KT 05/M05 A3003 RMK A01 T00451045  RH  052%=      5-min Rain = 0
KEA1 240941Z 36010KT 04/M05 A3004 RMK A01 T00441045  RH  052%=      5-min Rain = 0
KEA1 240942Z 00009KT 04/M04 A3004 RMK A01 T00441044  RH  053%=      5-min Rain = 0
KEA1 240943Z 36008KT 04/M04 A3004 RMK A01 T00441044  RH  053%=      5-min Rain = 0
KEA1 240944Z 36007KT 04/M05 A3004 RMK A01 T00441045  RH  053%=      5-min Rain = 0
KEA1 240945Z 35007KT 04/M05 A3004 RMK A01 T00421046  RH  053%=      5-min Rain = 0
KEA1 240946Z 35006KT 04/M05 A3004 RMK A01 T00401046  RH  053%=      5-min Rain = 0
KEA1 240947Z 35007KT 04/M05 A3004 RMK A01 T00391046  RH  054%=      5-min Rain = 0
KEA1 240948Z 36008KT 04/M05 A3004 RMK A01 T00381046  RH  054%=      5-min Rain = 0
KEA1 240949Z 00013KT 04/M05 A3004 RMK A01 T00381045  RH  054%=      5-min Rain = 0
KEA1 240950Z 36015KT 04/M04 A3004 RMK A01 T00421042  RH  054%=      5-min Rain = 0
KEA1 240951Z 00013G19KT 05/M04 A3004 RMK A01 T00461041  RH  053%=      5-min Rain = 0
KEA1 240952Z 01017KT 05/M04 A3004 RMK A01 T00471042  RH  052%=      5-min Rain = 0
KEA1 240953Z 00014KT 05/M04 A3004 RMK A01 T00491042  RH  052%=      5-min Rain = 0
KEA1 240954Z 00013KT 05/M04 A3004 RMK A01 T00491043  RH  051%=      5-min Rain = 0
KEA1 240955Z 00013KT 05/M04 A3004 RMK A01 T00491043  RH  051%=      5-min Rain = 0
KEA1 240956Z 00013KT 05/M04 A3004 RMK A01 T00481043  RH  052%=      5-min Rain = 0
KEA1 240957Z 36013KT 05/M04 A3004 RMK A01 T00471044  RH  052%=      5-min Rain = 0
KEA1 240958Z 00012KT 05/M04 A3005 RMK A01 T00461044  RH  052%=      5-min Rain = 0
KEA1 240959Z 00014KT 05/M04 A3004 RMK A01 T00461043  RH  052%=      5-min Rain = 0
KEA1 241000Z 00011KT 05/M04 A3005 RMK A01 T00461043  RH  052%=      5-min Rain = 0
KEA1 241001Z 00013KT 05/M04 A3004 RMK A01 T00451044  RH  053%=      5-min Rain = 0
KEA1 241002Z 01013KT 04/M04 A3005 RMK A01 T00441044  RH  053%=      5-min Rain = 0
KEA1 241003Z 01014KT 04/M04 A3005 RMK A01 T00431044  RH  053%=      5-min Rain = 0
KEA1 241004Z 01014KT 04/M04 A3005 RMK A01 T00441043  RH  053%=      5-min Rain = 0
KEA1 241005Z 01015KT 04/M04 A3005 RMK A01 T00441044  RH  053%=      5-min Rain = 0
KEA1 241006Z 01016KT 04/M04 A3005 RMK A01 T00441044  RH  053%=      5-min Rain = 0
KEA1 241007Z 00015KT 05/M04 A3005 RMK A01 T00461043  RH  052%=      5-min Rain = 0
KEA1 241008Z 01014KT 05/M04 A3005 RMK A01 T00461043  RH  052%=      5-min Rain = 0
KEA1 241009Z 01012KT 05/M04 A3005 RMK A01 T00461044  RH  052%=      5-min Rain = 0
KEA1 241010Z 01012KT 04/M05 A3005 RMK A01 T00441045  RH  052%=      5-min Rain = 0
KEA1 241011Z 01013KT 04/M05 A3005 RMK A01 T00441045  RH  053%=      5-min Rain = 0
KEA1 241012Z 01012KT 04/M04 A3005 RMK A01 T00431044  RH  053%=      5-min Rain = 0
KEA1 241013Z 00012KT 04/M04 A3005 RMK A01 T00431044  RH  053%=      5-min Rain = 0
KEA1 241014Z 01013KT 04/M04 A3005 RMK A01 T00431044  RH  053%=      5-min Rain = 0
KEA1 241015Z 01013KT 04/M04 A3005 RMK A01 T00431044  RH  053%=      5-min Rain = 0
KEA1 241016Z 01013KT 04/M04 A3005 RMK A01 T00421044  RH  054%=      5-min Rain = 0
KEA1 241017Z 01012KT 04/M04 A3006 RMK A01 T00421044  RH  054%=      5-min Rain = 0
KEA1 241018Z 00011KT 04/M04 A3006 RMK A01 T00421044  RH  054%=      5-min Rain = 0
KEA1 241019Z 36011KT 04/M04 A3006 RMK A01 T00411044  RH  054%=      5-min Rain = 0
KEA1 241020Z 36012KT 04/M04 A3006 RMK A01 T00401044  RH  054%=      5-min Rain = 0
KEA1 241021Z 36010KT 04/M04 A3006 RMK A01 T00401044  RH  054%=      5-min Rain = 0
KEA1 241022Z 36010KT 04/M04 A3006 RMK A01 T00391044  RH  055%=      5-min Rain = 0
KEA1 241023Z 36010KT 04/M04 A3006 RMK A01 T00391044  RH  055%=      5-min Rain = 0
KEA1 241024Z 36010KT 04/M04 A3006 RMK A01 T00381044  RH  055%=      5-min Rain = 0
KEA1 241025Z 35009KT 04/M04 A3006 RMK A01 T00381044  RH  055%=      5-min Rain = 0
KEA1 241026Z 36009KT 04/M04 A3006 RMK A01 T00371044  RH  055%=      5-min Rain = 0
KEA1 241027Z 36009KT 04/M05 A3006 RMK A01 T00361045  RH  056%=      5-min Rain = 0
KEA1 241028Z 35009KT 04/M05 A3006 RMK A01 T00351045  RH  056%=      5-min Rain = 0
KEA1 241029Z 36011KT 04/M04 A3007 RMK A01 T00351044  RH  056%=      5-min Rain = 0
KEA1 241030Z 35009KT 04/M04 A3007 RMK A01 T00361044  RH  056%=      5-min Rain = 0
KEA1 241031Z 35008KT 04/M04 A3007 RMK A01 T00351044  RH  056%=      5-min Rain = 0
KEA1 241032Z 35009KT 03/M05 A3007 RMK A01 T00341045  RH  056%=      5-min Rain = 0
KEA1 241033Z 35008KT 03/M05 A3007 RMK A01 T00331045  RH  057%=      5-min Rain = 0
KEA1 241034Z 35008KT 03/M05 A3007 RMK A01 T00331045  RH  057%=      5-min Rain = 0
KEA1 241035Z 35009KT 03/M05 A3007 RMK A01 T00321045  RH  057%=      5-min Rain = 0
KEA1 241036Z 34010KT 03/M05 A3007 RMK A01 T00311045  RH  057%=      5-min Rain = 0
KEA1 241037Z 35009KT 03/M05 A3007 RMK A01 T00321045  RH  057%=      5-min Rain = 0
KEA1 241038Z 35009KT 03/M05 A3007 RMK A01 T00321045  RH  057%=      5-min Rain = 0
KEA1 241039Z 34008KT 03/M05 A3007 RMK A01 T00311046  RH  057%=      5-min Rain = 0
KEA1 241040Z 35008KT 03/M05 A3007 RMK A01 T00311045  RH  057%=      5-min Rain = 0
KEA1 241041Z 35009KT 03/M05 A3007 RMK A01 T00291046  RH  058%=      5-min Rain = 0
KEA1 241042Z 34009KT 03/M05 A3007 RMK A01 T00301046  RH  058%=      5-min Rain = 0
KEA1 241043Z 35008KT 03/M05 A3007 RMK A01 T00301046  RH  058%=      5-min Rain = 0
KEA1 241044Z 34008KT 03/M05 A3007 RMK A01 T00301046  RH  058%=      5-min Rain = 0
KEA1 241045Z 34007KT 03/M05 A3007 RMK A01 T00301046  RH  058%=      5-min Rain = 0
KEA1 241046Z 35009KT 03/M05 A3008 RMK A01 T00291046  RH  058%=      5-min Rain = 0
KEA1 241047Z 35007KT 03/M05 A3007 RMK A01 T00291046  RH  058%=      5-min Rain = 0
KEA1 241048Z 35008KT 03/M05 A3008 RMK A01 T00281047  RH  058%=      5-min Rain = 0
KEA1 241049Z 35008KT 03/M05 A3008 RMK A01 T00281047  RH  058%=      5-min Rain = 0
KEA1 241050Z 36008KT 03/M05 A3008 RMK A01 T00271047  RH  058%=      5-min Rain = 0
KEA1 241051Z 36008KT 03/M05 A3008 RMK A01 T00271047  RH  058%=      5-min Rain = 0
KEA1 241052Z 35008KT 03/M05 A3008 RMK A01 T00271047  RH  058%=      5-min Rain = 0
KEA1 241053Z 36009KT 03/M05 A3008 RMK A01 T00271047  RH  058%=      5-min Rain = 0
KEA1 241054Z 36009KT 03/M05 A3007 RMK A01 T00271047  RH  058%=      5-min Rain = 0
KEA1 241055Z 36009KT 03/M05 A3007 RMK A01 T00271047  RH  058%=      5-min Rain = 0
KEA1 241056Z 36010KT 03/M05 A3007 RMK A01 T00271047  RH  058%=      5-min Rain = 0
KEA1 241057Z 36009KT 03/M05 A3007 RMK A01 T00271047  RH  058%=      5-min Rain = 0
KEA1 241058Z 36010KT 03/M05 A3007 RMK A01 T00261047  RH  058%=      5-min Rain = 0
KEA1 241059Z 36010KT 03/M05 A3007 RMK A01 T00261047  RH  058%=      5-min Rain = 0
KEA1 241100Z 35010KT 03/M05 A3007 RMK A01 T00261047  RH  058%=      5-min Rain = 0
KEA1 241101Z 00011G16KT 03/M05 A3007 RMK A01 T00261048  RH  058%=      5-min Rain = 0
KEA1 241102Z 00011KT 03/M05 A3007 RMK A01 T00271047  RH  058%=      5-min Rain = 0
KEA1 241103Z 01011KT 03/M05 A3008 RMK A01 T00281048  RH  058%=      5-min Rain = 0
KEA1 241104Z 01011KT 03/M05 A3008 RMK A01 T00291048  RH  057%=      5-min Rain = 0
KEA1 241105Z 01011KT 03/M05 A3008 RMK A01 T00291048  RH  057%=      5-min Rain = 0
KEA1 241106Z 01011KT 03/M05 A3008 RMK A01 T00291048  RH  057%=      5-min Rain = 0
KEA1 241107Z 01011KT 03/M05 A3008 RMK A01 T00291048  RH  057%=      5-min Rain = 0
KEA1 241108Z 01013KT 03/M05 A3008 RMK A01 T00291049  RH  056%=      5-min Rain = 0
KEA1 241109Z 01012KT 03/M05 A3008 RMK A01 T00301049  RH  056%=      5-min Rain = 0
KEA1 241110Z 01012KT 03/M05 A3008 RMK A01 T00301049  RH  056%=      5-min Rain = 0
KEA1 241111Z 01011KT 03/M05 A3008 RMK A01 T00301049  RH  056%=      5-min Rain = 0
KEA1 241112Z 00011KT 03/M05 A3008 RMK A01 T00291050  RH  056%=      5-min Rain = 0
KEA1 241113Z 00011KT 03/M05 A3008 RMK A01 T00291050  RH  056%=      5-min Rain = 0
KEA1 241114Z 00010KT 03/M05 A3008 RMK A01 T00291050  RH  056%=      5-min Rain = 0
KEA1 241115Z 36010KT 03/M05 A3008 RMK A01 T00281051  RH  056%=      5-min Rain = 0
KEA1 241116Z 36011KT 03/M05 A3008 RMK A01 T00281051  RH  056%=      5-min Rain = 0
KEA1 241117Z 36009KT 03/M05 A3008 RMK A01 T00271051  RH  056%=      5-min Rain = 0
KEA1 241118Z 36009KT 03/M05 A3008 RMK A01 T00261051  RH  057%=      5-min Rain = 0
KEA1 241119Z 00010KT 03/M05 A3008 RMK A01 T00251051  RH  057%=      5-min Rain = 0
KEA1 241120Z 36009KT 03/M05 A3008 RMK A01 T00251051  RH  057%=      5-min Rain = 0
KEA1 241121Z 00009KT 02/M05 A3008 RMK A01 T00241051  RH  058%=      5-min Rain = 0
KEA1 241122Z 36009KT 02/M05 A3009 RMK A01 T00231052  RH  058%=      5-min Rain = 0
KEA1 241123Z 35009KT 02/M05 A3009 RMK A01 T00221052  RH  058%=      5-min Rain = 0
KEA1 241124Z 35009KT 02/M05 A3009 RMK A01 T00211052  RH  058%=      5-min Rain = 0
KEA1 241125Z 35009KT 02/M05 A3009 RMK A01 T00201052  RH  059%=      5-min Rain = 0
KEA1 241126Z 35009KT 02/M05 A3009 RMK A01 T00201052  RH  059%=      5-min Rain = 0
KEA1 241127Z 35011KT 02/M05 A3009 RMK A01 T00201051  RH  059%=      5-min Rain = 0
KEA1 241128Z 35011KT 02/M05 A3009 RMK A01 T00201051  RH  059%=      5-min Rain = 0
KEA1 241129Z 35011KT 02/M05 A3009 RMK A01 T00211050  RH  059%=      5-min Rain = 0
KEA1 241130Z 34012G17KT 02/M05 A3009 RMK A01 T00221050  RH  059%=      5-min Rain = 0
KEA1 241131Z 35015KT 03/M05 A3009 RMK A01 T00251048  RH  058%=      5-min Rain = 0
KEA1 241132Z 35014G19KT 03/M05 A3009 RMK A01 T00301048  RH  057%=      5-min Rain = 0
KEA1 241133Z 35012KT 03/M05 A3009 RMK A01 T00321048  RH  056%=      5-min Rain = 0
KEA1 241134Z 35010KT 03/M05 A3009 RMK A01 T00311049  RH  055%=      5-min Rain = 0
KEA1 241135Z 35011KT 03/M05 A301 RMK A01 T00301050  RH  056%=      5-min Rain = 0
KEA1 241136Z 34010KT 03/M05 A301 RMK A01 T00301049  RH  056%=      5-min Rain = 0
KEA1 241137Z 33010KT 03/M05 A301 RMK A01 T00291050  RH  056%=      5-min Rain = 0
KEA1 241138Z 33009KT 03/M05 A301 RMK A01 T00281050  RH  056%=      5-min Rain = 0
KEA1 241139Z 33010KT 03/M05 A301 RMK A01 T00261051  RH  057%=      5-min Rain = 0
KEA1 241140Z 34010KT 03/M05 A301 RMK A01 T00251051  RH  057%=      5-min Rain = 0
KEA1 241141Z 33008KT 03/M05 A301 RMK A01 T00251050  RH  058%=      5-min Rain = 0
KEA1 241142Z 34009KT 02/M05 A3011 RMK A01 T00221051  RH  058%=      5-min Rain = 0
KEA1 241143Z 34009KT 02/M05 A3011 RMK A01 T00211051  RH  059%=      5-min Rain = 0
KEA1 241144Z 34009KT 02/M05 A3011 RMK A01 T00201051  RH  059%=      5-min Rain = 0
KEA1 241145Z 34008KT 02/M05 A3011 RMK A01 T00201051  RH  060%=      5-min Rain = 0
KEA1 241146Z 34009KT 02/M05 A3011 RMK A01 T00201050  RH  060%=      5-min Rain = 0
KEA1 241147Z 34008KT 02/M05 A3011 RMK A01 T00191051  RH  060%=      5-min Rain = 0
KEA1 241148Z 34009KT 02/M05 A3011 RMK A01 T00191051  RH  060%=      5-min Rain = 0
KEA1 241149Z 34009KT 02/M05 A3011 RMK A01 T00191050  RH  060%=      5-min Rain = 0
KEA1 241150Z 34009KT 02/M05 A3011 RMK A01 T00191050  RH  060%=      5-min Rain = 0
KEA1 241151Z 35009KT 02/M05 A3011 RMK A01 T00191050  RH  060%=      5-min Rain = 0
KEA1 241152Z 35010KT 02/M05 A3011 RMK A01 T00191050  RH  060%=      5-min Rain = 0
KEA1 241153Z 34010KT 02/M05 A3011 RMK A01 T00191050  RH  060%=      5-min Rain = 0
KEA1 241154Z 35009KT 02/M05 A3011 RMK A01 T00191050  RH  060%=      5-min Rain = 0
KEA1 241155Z 35009KT 02/M05 A3011 RMK A01 T00191050  RH  061%=      5-min Rain = 0
KEA1 241156Z 34009KT 02/M05 A3011 RMK A01 T00181050  RH  061%=      5-min Rain = 0
KEA1 241157Z 34009KT 02/M05 A3011 RMK A01 T00181050  RH  061%=      5-min Rain = 0
KEA1 241158Z 34009KT 02/M05 A3011 RMK A01 T00171050  RH  061%=      5-min Rain = 0
KEA1 241159Z 34009KT 02/M05 A3011 RMK A01 T00161051  RH  061%=      5-min Rain = 0
KEA1 241200Z 34009KT 02/M05 A3011 RMK A01 T00151051  RH  062%=      5-min Rain = 0
KEA1 241201Z 34010KT 01/M05 A3011 RMK A01 T00141051  RH  062%=      5-min Rain = 0
KEA1 241202Z 35010KT 01/M05 A3011 RMK A01 T00141050  RH  063%=      5-min Rain = 0
KEA1 241203Z 35010KT 01/M05 A3011 RMK A01 T00131050  RH  063%=      5-min Rain = 0
KEA1 241204Z 35009KT 01/M05 A3011 RMK A01 T00121051  RH  063%=      5-min Rain = 0
KEA1 241205Z 35009KT 01/M05 A3011 RMK A01 T00121051  RH  063%=      5-min Rain = 0
KEA1 241206Z 35009KT 01/M05 A3011 RMK A01 T00111050  RH  063%=      5-min Rain = 0
KEA1 241207Z 34008KT 01/M05 A3011 RMK A01 T00121050  RH  063%=      5-min Rain = 0
KEA1 241208Z 34008KT 01/M05 A3011 RMK A01 T00111051  RH  063%=      5-min Rain = 0
KEA1 241209Z 34007KT 01/M05 A3011 RMK A01 T00111051  RH  063%=      5-min Rain = 0
KEA1 241210Z 34007KT 01/M05 A3011 RMK A01 T00101051  RH  064%=      5-min Rain = 0
KEA1 241211Z 33006KT 01/M05 A3011 RMK A01 T00091052  RH  064%=      5-min Rain = 0
KEA1 241212Z 34006KT 01/M05 A3011 RMK A01 T00091051  RH  064%=      5-min Rain = 0
KEA1 241213Z 33006KT 01/M05 A3011 RMK A01 T00091052  RH  064%=      5-min Rain = 0
KEA1 241214Z 33005KT 01/M05 A3011 RMK A01 T00081052  RH  064%=      5-min Rain = 0
KEA1 241215Z 33006KT 01/M05 A3011 RMK A01 T00071053  RH  064%=      5-min Rain = 0
KEA1 241216Z 33006KT 01/M05 A3011 RMK A01 T00051054  RH  065%=      5-min Rain = 0
KEA1 241217Z 33006KT 00/M06 A3011 RMK A01 T00031055  RH  065%=      5-min Rain = 0
KEA1 241218Z 33006KT 00/M06 A3011 RMK A01 T00021055  RH  066%=      5-min Rain = 0
KEA1 241219Z 33006KT 00/M06 A3011 RMK A01 T00011055  RH  066%=      5-min Rain = 0
KEA1 241220Z 33007KT 00/M05 A3011 RMK A01 T00011054  RH  066%=      5-min Rain = 0
KEA1 241221Z 33007KT 00/05 A3011 RMK A01 T00000-54  RH  067%=      5-min Rain = 0
KEA1 241222Z 34007KT 00/M05 A3011 RMK A01 T00011053  RH  067%=      5-min Rain = 0
KEA1 241223Z 34007KT 00/M05 A3011 RMK A01 T00021053  RH  066%=      5-min Rain = 0
KEA1 241224Z 34008KT 00/M05 A3011 RMK A01 T00021053  RH  066%=      5-min Rain = 0
KEA1 241225Z 34008KT 00/M05 A3011 RMK A01 T00031053  RH  066%=      5-min Rain = 0
KEA1 241226Z 34008KT 00/M05 A3011 RMK A01 T00031053  RH  066%=      5-min Rain = 0
KEA1 241227Z 34009KT 00/M05 A3011 RMK A01 T00041052  RH  066%=      5-min Rain = 0
KEA1 241228Z 34008KT 01/M05 A3011 RMK A01 T00051051  RH  066%=      5-min Rain = 0
KEA1 241229Z 35008KT 01/M05 A3012 RMK A01 T00071050  RH  066%=      5-min Rain = 0
KEA1 241230Z 35007KT 01/M05 A3012 RMK A01 T00071050  RH  065%=      5-min Rain = 0
KEA1 241231Z 34008KT 01/M05 A3012 RMK A01 T00081051  RH  065%=      5-min Rain = 0
KEA1 241232Z 35010KT 01/M05 A3012 RMK A01 T00081051  RH  065%=      5-min Rain = 0
KEA1 241233Z 35008KT 01/M05 A3012 RMK A01 T00081051  RH  065%=      5-min Rain = 0
KEA1 241234Z 35008KT 01/M05 A3012 RMK A01 T00081051  RH  065%=      5-min Rain = 0
KEA1 241235Z 35008KT 01/M05 A3012 RMK A01 T00071051  RH  065%=      5-min Rain = 0
KEA1 241236Z 34008KT 01/M05 A3012 RMK A01 T00071051  RH  065%=      5-min Rain = 0
KEA1 241237Z 34009KT 01/M05 A3012 RMK A01 T00071051  RH  065%=      5-min Rain = 0
KEA1 241238Z 34008KT 01/M05 A3012 RMK A01 T00061052  RH  065%=      5-min Rain = 0
KEA1 241239Z 34008KT 01/M05 A3012 RMK A01 T00051052  RH  066%=      5-min Rain = 0
KEA1 241240Z 34008KT 01/M05 A3012 RMK A01 T00051052  RH  066%=      5-min Rain = 0
KEA1 241241Z 34009KT 01/M05 A3012 RMK A01 T00051051  RH  066%=      5-min Rain = 0
KEA1 241242Z 35009KT 01/M05 A3012 RMK A01 T00061051  RH  066%=      5-min Rain = 0
KEA1 241243Z 35009KT 01/M05 A3012 RMK A01 T00061051  RH  066%=      5-min Rain = 0
KEA1 241244Z 35009KT 01/M05 A3012 RMK A01 T00061051  RH  066%=      5-min Rain = 0
KEA1 241245Z 35009KT 01/M05 A3012 RMK A01 T00061051  RH  066%=      5-min Rain = 0
KEA1 241246Z 34009KT 01/M05 A3012 RMK A01 T00071050  RH  065%=      5-min Rain = 0
KEA1 241247Z 34009KT 01/M05 A3013 RMK A01 T00071051  RH  065%=      5-min Rain = 0
KEA1 241248Z 34009KT 01/M05 A3013 RMK A01 T00061051  RH  065%=      5-min Rain = 0
KEA1 241249Z 34008KT 01/M05 A3013 RMK A01 T00061051  RH  065%=      5-min Rain = 0
KEA1 241250Z 33008KT 01/M05 A3013 RMK A01 T00061051  RH  065%=      5-min Rain = 0
KEA1 241251Z 33008KT 01/M05 A3013 RMK A01 T00061051  RH  066%=      5-min Rain = 0
KEA1 241252Z 33009KT 01/M05 A3013 RMK A01 T00061051  RH  066%=      5-min Rain = 0
KEA1 241253Z 33008KT 01/M05 A3013 RMK A01 T00051051  RH  066%=      5-min Rain = 0
KEA1 241254Z 33008KT 01/M05 A3013 RMK A01 T00051051  RH  066%=      5-min Rain = 0
KEA1 241255Z 33008KT 01/M05 A3013 RMK A01 T00051051  RH  066%=      5-min Rain = 0
KEA1 241256Z 33008KT 00/M05 A3013 RMK A01 T00041051  RH  066%=      5-min Rain = 0
KEA1 241257Z 33009KT 00/M05 A3013 RMK A01 T00031052  RH  067%=      5-min Rain = 0
KEA1 241258Z 33008KT 00/M05 A3013 RMK A01 T00031051  RH  067%=      5-min Rain = 0
KEA1 241259Z 33008KT 00/M05 A3013 RMK A01 T00021051  RH  067%=      5-min Rain = 0
KEA1 241300Z 33008KT 00/M05 A3013 RMK A01 T00031051  RH  067%=      5-min Rain = 0
KEA1 241301Z 34009KT 00/M05 A3013 RMK A01 T00031051  RH  067%=      5-min Rain = 0
KEA1 241302Z 33009KT 00/M05 A3013 RMK A01 T00031051  RH  067%=      5-min Rain = 0
KEA1 241303Z 34009KT 00/M05 A3014 RMK A01 T00041051  RH  067%=      5-min Rain = 0
KEA1 241304Z 34009KT 00/M05 A3014 RMK A01 T00041050  RH  067%=      5-min Rain = 0
KEA1 241305Z 34009KT 01/M05 A3014 RMK A01 T00051050  RH  066%=      5-min Rain = 0
KEA1 241306Z 34008KT 01/M05 A3014 RMK A01 T00051051  RH  066%=      5-min Rain = 0
KEA1 241307Z 33008KT 00/M05 A3014 RMK A01 T00041051  RH  066%=      5-min Rain = 0
KEA1 241308Z 33008KT 00/M05 A3014 RMK A01 T00041051  RH  066%=      5-min Rain = 0
KEA1 241309Z 33009KT 00/M05 A3014 RMK A01 T00041051  RH  066%=      5-min Rain = 0
KEA1 241310Z 33009KT 00/M05 A3014 RMK A01 T00041051  RH  066%=      5-min Rain = 0
KEA1 241311Z 33009KT 01/M05 A3014 RMK A01 T00051051  RH  066%=      5-min Rain = 0
KEA1 241312Z 33009KT 01/M05 A3014 RMK A01 T00051051  RH  066%=      5-min Rain = 0
KEA1 241313Z 33009KT 00/M05 A3014 RMK A01 T00041052  RH  066%=      5-min Rain = 0
KEA1 241314Z 33010KT 00/M05 A3014 RMK A01 T00031052  RH  066%=      5-min Rain = 0
KEA1 241315Z 33009KT 00/M05 A3014 RMK A01 T00041052  RH  066%=      5-min Rain = 0
KEA1 241316Z 33009KT 00/M05 A3014 RMK A01 T00031052  RH  066%=      5-min Rain = 0
KEA1 241317Z 33009KT 00/M05 A3014 RMK A01 T00031053  RH  066%=      5-min Rain = 0
KEA1 241318Z 33008KT 00/M05 A3014 RMK A01 T00031052  RH  066%=      5-min Rain = 0
KEA1 241319Z 33010KT 00/M05 A3014 RMK A01 T00031052  RH  066%=      5-min Rain = 0
KEA1 241320Z 34011KT 00/M05 A3014 RMK A01 T00041052  RH  066%=      5-min Rain = 0
KEA1 241321Z 34011KT 01/M05 A3014 RMK A01 T00061052  RH  065%=      5-min Rain = 0
KEA1 241322Z 35012KT 01/M05 A3014 RMK A01 T00071053  RH  064%=      5-min Rain = 0
KEA1 241323Z 35012KT 01/M05 A3014 RMK A01 T00071053  RH  064%=      5-min Rain = 0
KEA1 241324Z 35013KT 01/M05 A3014 RMK A01 T00091052  RH  064%=      5-min Rain = 0
KEA1 241325Z 35013KT 01/M05 A3014 RMK A01 T00101052  RH  063%=      5-min Rain = 0
KEA1 241326Z 35014KT 01/M05 A3014 RMK A01 T00111052  RH  063%=      5-min Rain = 0
KEA1 241327Z 35014KT 01/M05 A3014 RMK A01 T00131052  RH  062%=      5-min Rain = 0
KEA1 241328Z 35013KT 01/M05 A3014 RMK A01 T00141053  RH  061%=      5-min Rain = 0
KEA1 241329Z 35011KT 01/M05 A3014 RMK A01 T00131053  RH  061%=      5-min Rain = 0
KEA1 241330Z 34011KT 01/M05 A3014 RMK A01 T00121054  RH  061%=      5-min Rain = 0
KEA1 241331Z 34011KT 01/M05 A3015 RMK A01 T00111054  RH  062%=      5-min Rain = 0
KEA1 241332Z 33009KT 01/M05 A3015 RMK A01 T00111054  RH  062%=      5-min Rain = 0
KEA1 241333Z 34011KT 01/M05 A3015 RMK A01 T00121053  RH  062%=      5-min Rain = 0
KEA1 241334Z 34010KT 01/M05 A3015 RMK A01 T00111053  RH  062%=      5-min Rain = 0
KEA1 241335Z 35009KT 01/M05 A3015 RMK A01 T00111054  RH  062%=      5-min Rain = 0
KEA1 241336Z 34010KT 01/M05 A3015 RMK A01 T00101054  RH  062%=      5-min Rain = 0
KEA1 241337Z 35011KT 01/M05 A3015 RMK A01 T00111054  RH  062%=      5-min Rain = 0
KEA1 241338Z 35010KT 01/M05 A3016 RMK A01 T00111054  RH  062%=      5-min Rain = 0
KEA1 241339Z 35012KT 01/M05 A3016 RMK A01 T00111054  RH  062%=      5-min Rain = 0
KEA1 241340Z 35010KT 01/M05 A3016 RMK A01 T00111054  RH  062%=      5-min Rain = 0
KEA1 241341Z 35011KT 01/M05 A3016 RMK A01 T00111054  RH  062%=      5-min Rain = 0
KEA1 241342Z 35011KT 01/M05 A3016 RMK A01 T00111054  RH  062%=      5-min Rain = 0
KEA1 241343Z 34011KT 01/M06 A3016 RMK A01 T00111055  RH  061%=      5-min Rain = 0
KEA1 241344Z 34011KT 01/M06 A3016 RMK A01 T00111055  RH  061%=      5-min Rain = 0
KEA1 241345Z 34010KT 01/M05 A3016 RMK A01 T00121054  RH  061%=      5-min Rain = 0
KEA1 241346Z 34011KT 01/M06 A3016 RMK A01 T00121055  RH  061%=      5-min Rain = 0
KEA1 241347Z 34011KT 01/M05 A3017 RMK A01 T00121054  RH  061%=      5-min Rain = 0
KEA1 241348Z 33010KT 01/M05 A3017 RMK A01 T00121054  RH  061%=      5-min Rain = 0
KEA1 241349Z 33009KT 01/M05 A3017 RMK A01 T00131054  RH  061%=      5-min Rain = 0
KEA1 241350Z 32009KT 01/M05 A3017 RMK A01 T00121054  RH  061%=      5-min Rain = 0
KEA1 241351Z 32008KT 01/M05 A3017 RMK A01 T00111054  RH  062%=      5-min Rain = 0
KEA1 241352Z 33006KT 01/M05 A3017 RMK A01 T00111054  RH  062%=      5-min Rain = 0
KEA1 241353Z 34008KT 01/M05 A3017 RMK A01 T00101054  RH  063%=      5-min Rain = 0
KEA1 241354Z 34008KT 01/M05 A3017 RMK A01 T00091054  RH  063%=      5-min Rain = 0
KEA1 241355Z 34007G13KT 01/M05 A3017 RMK A01 T00091053  RH  063%=      5-min Rain = 0
KEA1 241356Z 34009KT 01/M05 A3017 RMK A01 T00091054  RH  063%=      5-min Rain = 0
KEA1 241357Z 35011KT 01/M05 A3017 RMK A01 T00101054  RH  062%=      5-min Rain = 0
KEA1 241358Z 35011KT 01/M05 A3017 RMK A01 T00111054  RH  062%=      5-min Rain = 0
KEA1 241359Z 35012KT 01/M05 A3017 RMK A01 T00121054  RH  061%=      5-min Rain = 0
KEA1 241400Z 35013KT 01/M06 A3017 RMK A01 T00121055  RH  061%=      5-min Rain = 0
KEA1 241401Z 35012KT 01/M06 A3017 RMK A01 T00131055  RH  060%=      5-min Rain = 0
KEA1 241402Z 35011KT 01/M06 A3018 RMK A01 T00131055  RH  060%=      5-min Rain = 0
KEA1 241403Z 35011KT 01/M06 A3018 RMK A01 T00131056  RH  060%=      5-min Rain = 0
KEA1 241404Z 35010KT 01/M06 A3018 RMK A01 T00141055  RH  060%=      5-min Rain = 0
KEA1 241405Z 35009KT 01/M06 A3018 RMK A01 T00141055  RH  060%=      5-min Rain = 0
KEA1 241406Z 35011KT 02/M06 A3018 RMK A01 T00151055  RH  060%=      5-min Rain = 0
KEA1 241407Z 35011KT 02/M06 A3018 RMK A01 T00151056  RH  060%=      5-min Rain = 0
KEA1 241408Z 35011KT 02/M06 A3018 RMK A01 T00151056  RH  059%=      5-min Rain = 0
KEA1 241409Z 35012KT 02/M06 A3018 RMK A01 T00151056  RH  059%=      5-min Rain = 0
KEA1 241410Z 36010KT 02/M06 A3018 RMK A01 T00161056  RH  059%=      5-min Rain = 0
KEA1 241411Z 36011KT 02/M06 A3018 RMK A01 T00161055  RH  059%=      5-min Rain = 0
KEA1 241412Z 36011KT 02/M06 A3018 RMK A01 T00171055  RH  059%=      5-min Rain = 0
KEA1 241413Z 35011KT 02/M06 A3018 RMK A01 T00171056  RH  059%=      5-min Rain = 0
KEA1 241414Z 35011KT 02/M06 A3018 RMK A01 T00181055  RH  058%=      5-min Rain = 0
KEA1 241415Z 35013KT 02/M06 A3018 RMK A01 T00181056  RH  058%=      5-min Rain = 0
KEA1 241416Z 35014KT 02/M06 A3018 RMK A01 T00181056  RH  058%=      5-min Rain = 0
KEA1 241417Z 35013KT 02/M06 A3018 RMK A01 T00191057  RH  057%=      5-min Rain = 0
KEA1 241418Z 35013KT 02/M06 A3018 RMK A01 T00181058  RH  057%=      5-min Rain = 0
KEA1 241419Z 35014KT 02/M06 A3018 RMK A01 T00191057  RH  057%=      5-min Rain = 0
KEA1 241420Z 35015KT 02/M06 A3018 RMK A01 T00201057  RH  057%=      5-min Rain = 0
KEA1 241421Z 34015KT 02/M06 A3018 RMK A01 T00211057  RH  056%=      5-min Rain = 0
KEA1 241422Z 35016KT 02/M06 A3018 RMK A01 T00211057  RH  056%=      5-min Rain = 0
KEA1 241423Z 35015KT 02/M06 A3018 RMK A01 T00211058  RH  056%=      5-min Rain = 0
KEA1 241424Z 35013KT 02/M06 A3018 RMK A01 T00221058  RH  055%=      5-min Rain = 0
KEA1 241425Z 34013KT 02/M06 A3018 RMK A01 T00231057  RH  056%=      5-min Rain = 0
KEA1 241426Z 35013KT 02/M06 A3018 RMK A01 T00241057  RH  055%=      5-min Rain = 0
KEA1 241427Z 35016KT 02/M06 A3019 RMK A01 T00241058  RH  055%=      5-min Rain = 0
KEA1 241428Z 35013KT 02/M06 A3019 RMK A01 T00241059  RH  054%=      5-min Rain = 0
KEA1 241429Z 35015KT 03/M06 A3019 RMK A01 T00251058  RH  054%=      5-min Rain = 0
KEA1 241430Z 35015KT 03/M06 A3019 RMK A01 T00251059  RH  054%=      5-min Rain = 0
KEA1 241431Z 36015KT 03/M06 A3019 RMK A01 T00261059  RH  054%=      5-min Rain = 0
KEA1 241432Z 35017KT 03/M06 A3019 RMK A01 T00261060  RH  053%=      5-min Rain = 0
KEA1 241433Z 36017KT 03/M06 A3019 RMK A01 T00261060  RH  053%=      5-min Rain = 0
KEA1 241434Z 36018KT 03/M06 A3019 RMK A01 T00271061  RH  053%=      5-min Rain = 0
KEA1 241435Z 36017KT 03/M06 A3019 RMK A01 T00271062  RH  052%=      5-min Rain = 0
KEA1 241436Z 36020KT 03/M06 A3019 RMK A01 T00271062  RH  052%=      5-min Rain = 0
KEA1 241437Z 00019KT 03/M06 A3019 RMK A01 T00281062  RH  052%=      5-min Rain = 0
KEA1 241438Z 36017KT 03/M06 A3019 RMK A01 T00281062  RH  052%=      5-min Rain = 0
KEA1 241439Z 36017G22KT 03/M06 A3019 RMK A01 T00291061  RH  052%=      5-min Rain = 0
KEA1 241440Z 35018KT 03/M06 A3019 RMK A01 T00301062  RH  051%=      5-min Rain = 0
KEA1 241441Z 35019KT 03/M06 A302 RMK A01 T00301062  RH  051%=      5-min Rain = 0
KEA1 241442Z 35019KT 03/M06 A302 RMK A01 T00301062  RH  051%=      5-min Rain = 0
KEA1 241443Z 35018KT 03/M06 A302 RMK A01 T00301062  RH  051%=      5-min Rain = 0
KEA1 241444Z 35017KT 03/M06 A302 RMK A01 T00301062  RH  051%=      5-min Rain = 0
KEA1 241445Z 34016KT 03/M06 A302 RMK A01 T00301061  RH  051%=      5-min Rain = 0
KEA1 241446Z 35018KT 03/M06 A302 RMK A01 T00321061  RH  051%=      5-min Rain = 0
KEA1 241447Z 35013G18KT 03/M06 A302 RMK A01 T00311061  RH  051%=      5-min Rain = 0
KEA1 241448Z 36014KT 03/M06 A302 RMK A01 T00321059  RH  051%=      5-min Rain = 0
KEA1 241449Z 36018KT 03/M06 A302 RMK A01 T00341060  RH  050%=      5-min Rain = 0
KEA1 241450Z 35017KT 03/M06 A302 RMK A01 T00331062  RH  050%=      5-min Rain = 0
KEA1 241451Z 00018KT 03/M06 A302 RMK A01 T00331061  RH  050%=      5-min Rain = 0
KEA1 241452Z 36018KT 03/M06 A302 RMK A01 T00331061  RH  050%=      5-min Rain = 0
KEA1 241453Z 00015G20KT 03/M06 A302 RMK A01 T00331062  RH  050%=      5-min Rain = 0
KEA1 241454Z 36016G23KT 03/M06 A302 RMK A01 T00331061  RH  050%=      5-min Rain = 0
KEA1 241455Z 36020KT 03/M06 A302 RMK A01 T00341061  RH  050%=      5-min Rain = 0
KEA1 241456Z 00020KT 03/M06 A302 RMK A01 T00341062  RH  050%=      5-min Rain = 0
KEA1 241457Z 35017KT 03/M06 A302 RMK A01 T00331062  RH  050%=      5-min Rain = 0
KEA1 241458Z 36018KT 03/M06 A302 RMK A01 T00341061  RH  050%=      5-min Rain = 0
KEA1 241459Z 36017KT 03/M06 A302 RMK A01 T00341061  RH  050%=      5-min Rain = 0
KEA1 241500Z 00017KT 04/M06 A302 RMK A01 T00361061  RH  049%=      5-min Rain = 0
KEA1 241501Z 36019KT 04/M06 A302 RMK A01 T00361061  RH  049%=      5-min Rain = 0
KEA1 241502Z 00019KT 04/M06 A302 RMK A01 T00351062  RH  049%=      5-min Rain = 0
KEA1 241503Z 35016KT 04/M06 A302 RMK A01 T00351062  RH  049%=      5-min Rain = 0
KEA1 241504Z 35016KT 04/M06 A302 RMK A01 T00361061  RH  049%=      5-min Rain = 0
KEA1 241505Z 36017KT 04/M06 A302 RMK A01 T00371061  RH  049%=      5-min Rain = 0
KEA1 241506Z 00017KT 04/M06 A302 RMK A01 T00371061  RH  049%=      5-min Rain = 0
KEA1 241507Z 36020KT 04/M06 A302 RMK A01 T00381061  RH  048%=      5-min Rain = 0
KEA1 241508Z 01019KT 04/M06 A302 RMK A01 T00381062  RH  048%=      5-min Rain = 0
KEA1 241509Z 00019KT 04/M06 A302 RMK A01 T00381061  RH  048%=      5-min Rain = 0
KEA1 241510Z 00020KT 04/M06 A302 RMK A01 T00391062  RH  048%=      5-min Rain = 0
KEA1 241511Z 01018G23KT 04/M06 A302 RMK A01 T00391061  RH  048%=      5-min Rain = 0
KEA1 241512Z 00018KT 04/M06 A302 RMK A01 T00401060  RH  048%=      5-min Rain = 0
KEA1 241513Z 01019KT 04/M06 A302 RMK A01 T00411061  RH  047%=      5-min Rain = 0
KEA1 241514Z 01021G26KT 04/M06 A302 RMK A01 T00411061  RH  047%=      5-min Rain = 0
KEA1 241515Z 00018G23KT 04/M06 A302 RMK A01 T00401063  RH  047%=      5-min Rain = 0
KEA1 241516Z 01017KT 04/M06 A3021 RMK A01 T00391062  RH  048%=      5-min Rain = 0
KEA1 241517Z 02018G23KT 04/M06 A3021 RMK A01 T00401061  RH  048%=      5-min Rain = 0
KEA1 241518Z 01019G24KT 04/M06 A302 RMK A01 T00411062  RH  047%=      5-min Rain = 0
KEA1 241519Z 01017KT 04/M06 A3021 RMK A01 T00401062  RH  047%=      5-min Rain = 0
KEA1 241520Z 00018KT 04/M06 A3021 RMK A01 T00401061  RH  047%=      5-min Rain = 0
KEA1 241521Z 01016KT 04/M06 A3021 RMK A01 T00411061  RH  047%=      5-min Rain = 0
KEA1 241522Z 01018KT 04/M06 A302 RMK A01 T00421061  RH  047%=      5-min Rain = 0
KEA1 241523Z 01015KT 04/M06 A3021 RMK A01 T00421060  RH  047%=      5-min Rain = 0
KEA1 241524Z 01015KT 04/M06 A3021 RMK A01 T00441059  RH  047%=      5-min Rain = 0
KEA1 241525Z 01017KT 05/M06 A3021 RMK A01 T00451059  RH  047%=      5-min Rain = 0
KEA1 241526Z 01015KT 05/M06 A3021 RMK A01 T00451060  RH  046%=      5-min Rain = 0
KEA1 241527Z 00019KT 05/M06 A3021 RMK A01 T00471059  RH  046%=      5-min Rain = 0
KEA1 241528Z 36016KT 05/M06 A3021 RMK A01 T00461060  RH  046%=      5-min Rain = 0
KEA1 241529Z 36019KT 05/M06 A3021 RMK A01 T00451061  RH  046%=      5-min Rain = 0
KEA1 241530Z 01016KT 04/M06 A3021 RMK A01 T00431061  RH  047%=      5-min Rain = 0
KEA1 241531Z 02016KT 05/M06 A3021 RMK A01 T00451059  RH  047%=      5-min Rain = 0
KEA1 241532Z 01018KT 05/M06 A3021 RMK A01 T00481058  RH  046%=      5-min Rain = 0
KEA1 241533Z 01015G20KT 05/M06 A3021 RMK A01 T00481061  RH  045%=      5-min Rain = 0
KEA1 241534Z 00014KT 05/M06 A3021 RMK A01 T00481059  RH  046%=      5-min Rain = 0
KEA1 241535Z 36012KT 05/M06 A3022 RMK A01 T00511057  RH  045%=      5-min Rain = 0
KEA1 241536Z 01016KT 05/M06 A3021 RMK A01 T00541057  RH  045%=      5-min Rain = 0
KEA1 241537Z 02018KT 05/M06 A3021 RMK A01 T00531060  RH  044%=      5-min Rain = 0
KEA1 241538Z 00017KT 05/M06 A3021 RMK A01 T00501062  RH  044%=      5-min Rain = 0
KEA1 241539Z 01017KT 05/M06 A3022 RMK A01 T00501060  RH  045%=      5-min Rain = 0
KEA1 241540Z 36017KT 05/M06 A3021 RMK A01 T00501060  RH  045%=      5-min Rain = 0
KEA1 241541Z 01013KT 05/M06 A3022 RMK A01 T00501060  RH  045%=      5-min Rain = 0
KEA1 241542Z 00017KT 05/M06 A3021 RMK A01 T00531057  RH  045%=      5-min Rain = 0
KEA1 241543Z 01015KT 05/M06 A3021 RMK A01 T00531059  RH  044%=      5-min Rain = 0
KEA1 241544Z 02020KT 05/M06 A3021 RMK A01 T00531058  RH  044%=      5-min Rain = 0
KEA1 241545Z 01018KT 05/M06 A3021 RMK A01 T00521061  RH  044%=      5-min Rain = 0
KEA1 241546Z 01020KT 05/M06 A3021 RMK A01 T00511061  RH  044%=      5-min Rain = 0
KEA1 241547Z 02017KT 05/M06 A3021 RMK A01 T00501061  RH  044%=      5-min Rain = 0
KEA1 241548Z 02017KT 05/M06 A3021 RMK A01 T00501060  RH  045%=      5-min Rain = 0
KEA1 241549Z 01016KT 05/M06 A3022 RMK A01 T00511059  RH  045%=      5-min Rain = 0
KEA1 241550Z 01015KT 05/M06 A3022 RMK A01 T00521058  RH  045%=      5-min Rain = 0
KEA1 241551Z 00016KT 05/M06 A3022 RMK A01 T00531058  RH  044%=      5-min Rain = 0
KEA1 241552Z 01017KT 05/M06 A3022 RMK A01 T00521059  RH  044%=      5-min Rain = 0
KEA1 241553Z 02017KT 05/M06 A3021 RMK A01 T00531057  RH  045%=      5-min Rain = 0
KEA1 241554Z 01018KT 05/M06 A3021 RMK A01 T00531059  RH  044%=      5-min Rain = 0
KEA1 241555Z 02017KT 05/M06 A3021 RMK A01 T00531059  RH  044%=      5-min Rain = 0
KEA1 241556Z 02018KT 05/M06 A3021 RMK A01 T00531059  RH  044%=      5-min Rain = 0
KEA1 241557Z 01018KT 05/M06 A3022 RMK A01 T00521059  RH  045%=      5-min Rain = 0
KEA1 241558Z 01017KT 05/M06 A3022 RMK A01 T00531058  RH  045%=      5-min Rain = 0
KEA1 241559Z 01017KT 05/M06 A3022 RMK A01 T00541058  RH  044%=      5-min Rain = 0
KEA1 241600Z 01016KT 05/M06 A3022 RMK A01 T00531058  RH  044%=      5-min Rain = 0
KEA1 241601Z 01017KT 05/M06 A3022 RMK A01 T00531058  RH  044%=      5-min Rain = 0
KEA1 241602Z 01016KT 05/M06 A3022 RMK A01 T00541058  RH  044%=      5-min Rain = 0
KEA1 241603Z 02016KT 06/M06 A3022 RMK A01 T00551057  RH  044%=      5-min Rain = 0
KEA1 241604Z 01017KT 06/M06 A3022 RMK A01 T00571056  RH  044%=      5-min Rain = 0
KEA1 241605Z 01016KT 06/M06 A3021 RMK A01 T00581057  RH  044%=      5-min Rain = 0
KEA1 241606Z 01015KT 06/M06 A3022 RMK A01 T00581057  RH  043%=      5-min Rain = 0
KEA1 241607Z 01014KT 06/M06 A3022 RMK A01 T00581056  RH  043%=      5-min Rain = 0
KEA1 241608Z 02016KT 06/M06 A3022 RMK A01 T00611055  RH  043%=      5-min Rain = 0
KEA1 241609Z 02016KT 06/M06 A3021 RMK A01 T00621056  RH  043%=      5-min Rain = 0
KEA1 241610Z 01016KT 06/M06 A3021 RMK A01 T00621056  RH  043%=      5-min Rain = 0
KEA1 241611Z 01015KT 06/M06 A3021 RMK A01 T00611057  RH  042%=      5-min Rain = 0
KEA1 241612Z 01012KT 06/M06 A3022 RMK A01 T00611056  RH  043%=      5-min Rain = 0
KEA1 241613Z 01012KT 07/M05 A3022 RMK A01 T00651054  RH  042%=      5-min Rain = 0
KEA1 241614Z 01015KT 07/M05 A3022 RMK A01 T00681054  RH  042%=      5-min Rain = 0
KEA1 241615Z 01016KT 07/M06 A3022 RMK A01 T00671056  RH  041%=      5-min Rain = 0
KEA1 241616Z 01014KT 07/M06 A3022 RMK A01 T00651058  RH  041%=      5-min Rain = 0
KEA1 241617Z 01015KT 06/M06 A3022 RMK A01 T00631058  RH  042%=      5-min Rain = 0
KEA1 241618Z 01014KT 06/M06 A3022 RMK A01 T00631057  RH  042%=      5-min Rain = 0
KEA1 241619Z 01013KT 07/M06 A3022 RMK A01 T00651055  RH  042%=      5-min Rain = 0
KEA1 241620Z 01017KT 07/M06 A3021 RMK A01 T00661056  RH  042%=      5-min Rain = 0
KEA1 241621Z 01015KT 07/M06 A3021 RMK A01 T00651057  RH  041%=      5-min Rain = 0
KEA1 241622Z 01017KT 07/M06 A3021 RMK A01 T00661057  RH  041%=      5-min Rain = 0
KEA1 241623Z 01014KT 07/M06 A3021 RMK A01 T00661056  RH  041%=      5-min Rain = 0
KEA1 241624Z 01016KT 07/M06 A3021 RMK A01 T00671057  RH  041%=      5-min Rain = 0
KEA1 241625Z 01013KT 07/M06 A3021 RMK A01 T00671057  RH  041%=      5-min Rain = 0
KEA1 241626Z 01016KT 07/M06 A3021 RMK A01 T00691055  RH  041%=      5-min Rain = 0
KEA1 241627Z 01014KT 07/M06 A3021 RMK A01 T00681057  RH  041%=      5-min Rain = 0
KEA1 241628Z 01015KT 07/M06 A3021 RMK A01 T00691055  RH  041%=      5-min Rain = 0
KEA1 241629Z 02013KT 07/M06 A3021 RMK A01 T00691057  RH  040%=      5-min Rain = 0
KEA1 241630Z 01013KT 07/M06 A3021 RMK A01 T00691055  RH  041%=      5-min Rain = 0
KEA1 241631Z 01018KT 07/M06 A3021 RMK A01 T00721055  RH  040%=      5-min Rain = 0
KEA1 241632Z 01015KT 07/M06 A3021 RMK A01 T00711059  RH  039%=      5-min Rain = 0
KEA1 241633Z 02012KT 07/M06 A3021 RMK A01 T00701059  RH  040%=      5-min Rain = 0
KEA1 241634Z 01013KT 07/M06 A3021 RMK A01 T00701057  RH  040%=      5-min Rain = 0
KEA1 241635Z 01014KT 07/M06 A3021 RMK A01 T00711056  RH  040%=      5-min Rain = 0
KEA1 241636Z 01014KT 07/M06 A3021 RMK A01 T00721055  RH  040%=      5-min Rain = 0
KEA1 241637Z 01014KT 07/M06 A3021 RMK A01 T00741056  RH  039%=      5-min Rain = 0
KEA1 241638Z 01017KT 07/M06 A3021 RMK A01 T00741058  RH  039%=      5-min Rain = 0
KEA1 241639Z 02013KT 07/M06 A3021 RMK A01 T00731059  RH  038%=      5-min Rain = 0
KEA1 241640Z 02013KT 07/M06 A3021 RMK A01 T00741058  RH  039%=      5-min Rain = 0
KEA1 241641Z 02016KT 07/M06 A3021 RMK A01 T00741058  RH  039%=      5-min Rain = 0
KEA1 241642Z 02012KT 07/M06 A3021 RMK A01 T00741059  RH  038%=      5-min Rain = 0
KEA1 241643Z 02014G21KT 08/M05 A3021 RMK A01 T00771054  RH  039%=      5-min Rain = 0
KEA1 241644Z 02016KT 08/M06 A3021 RMK A01 T00811055  RH  038%=      5-min Rain = 0
KEA1 241645Z 02012KT 08/M06 A3021 RMK A01 T00771060  RH  037%=      5-min Rain = 0
KEA1 241646Z 01014KT 08/M06 A3021 RMK A01 T00751058  RH  038%=      5-min Rain = 0
KEA1 241647Z 02013KT 08/M06 A3021 RMK A01 T00771057  RH  038%=      5-min Rain = 0
KEA1 241648Z 01012KT 08/M06 A3021 RMK A01 T00781058  RH  037%=      5-min Rain = 0
KEA1 241649Z 02014KT 08/M06 A3021 RMK A01 T00791055  RH  038%=      5-min Rain = 0
KEA1 241650Z 01016KT 08/M06 A3021 RMK A01 T00821056  RH  037%=      5-min Rain = 0
KEA1 241651Z 02014KT 08/M06 A3021 RMK A01 T00791062  RH  036%=      5-min Rain = 0
KEA1 241652Z 02014KT 08/M06 A3021 RMK A01 T00781062  RH  036%=      5-min Rain = 0
KEA1 241653Z 02014KT 08/M06 A3021 RMK A01 T00791059  RH  037%=      5-min Rain = 0
KEA1 241654Z 02014KT 08/M06 A3021 RMK A01 T00781059  RH  037%=      5-min Rain = 0
KEA1 241655Z 01015KT 08/M06 A3021 RMK A01 T00781059  RH  037%=      5-min Rain = 0
KEA1 241656Z 02015KT 08/M06 A3021 RMK A01 T00821059  RH  036%=      5-min Rain = 0
KEA1 241657Z 03012KT 08/M06 A3021 RMK A01 T00791063  RH  036%=      5-min Rain = 0
KEA1 241658Z 02011G16KT 08/M06 A3021 RMK A01 T00751062  RH  037%=      5-min Rain = 0
KEA1 241659Z 03016KT 08/M06 A3021 RMK A01 T00791057  RH  037%=      5-min Rain = 0
KEA1 241700Z 02012KT 08/M06 A3021 RMK A01 T00821060  RH  036%=      5-min Rain = 0
KEA1 241701Z 02011KT 08/M06 A3021 RMK A01 T00821059  RH  036%=      5-min Rain = 0
KEA1 241702Z 02013KT 08/M06 A3021 RMK A01 T00821061  RH  036%=      5-min Rain = 0
KEA1 241703Z 03010KT 08/M06 A3021 RMK A01 T00811061  RH  036%=      5-min Rain = 0
KEA1 241704Z 03013KT 08/M06 A3021 RMK A01 T00821060  RH  036%=      5-min Rain = 0
KEA1 241705Z 03014KT 08/M06 A3021 RMK A01 T00841061  RH  035%=      5-min Rain = 0
KEA1 241706Z 02014KT 08/M06 A3021 RMK A01 T00821061  RH  036%=      5-min Rain = 0
KEA1 241707Z 02011KT 08/M06 A3021 RMK A01 T00831060  RH  036%=      5-min Rain = 0
KEA1 241708Z 03013KT 09/M06 A3021 RMK A01 T00851058  RH  036%=      5-min Rain = 0
KEA1 241709Z 02012G17KT 09/M06 A3021 RMK A01 T00861060  RH  035%=      5-min Rain = 0
KEA1 241710Z 02011KT 09/M06 A3021 RMK A01 T00861059  RH  035%=      5-min Rain = 0
KEA1 241711Z 02012KT 09/M06 A3021 RMK A01 T00891056  RH  035%=      5-min Rain = 0
KEA1 241712Z 03013KT 09/M06 A3021 RMK A01 T00921057  RH  034%=      5-min Rain = 0
KEA1 241713Z 02013KT 09/M06 A3021 RMK A01 T00911059  RH  034%=      5-min Rain = 0
KEA1 241714Z 02014KT 09/M06 A3021 RMK A01 T00911059  RH  034%=      5-min Rain = 0
KEA1 241715Z 03015KT 09/M07 A3021 RMK A01 T00881065  RH  033%=      5-min Rain = 0
KEA1 241716Z 03013KT 09/M07 A3021 RMK A01 T00881065  RH  033%=      5-min Rain = 0
KEA1 241717Z 06011KT 09/M07 A3021 RMK A01 T00871065  RH  034%=      5-min Rain = 0
KEA1 241718Z 04010KT 09/M06 A3021 RMK A01 T00861061  RH  035%=      5-min Rain = 0
KEA1 241719Z 02009KT 09/M06 A3021 RMK A01 T00871060  RH  035%=      5-min Rain = 0
KEA1 241720Z 02009G16KT 09/M06 A3021 RMK A01 T00901058  RH  035%=      5-min Rain = 0
KEA1 241721Z 04016KT 09/M06 A3021 RMK A01 T00921064  RH  033%=      5-min Rain = 0
KEA1 241722Z 05013KT 09/M07 A3021 RMK A01 T00911070  RH  031%=      5-min Rain = 0
KEA1 241723Z 05009KT 09/M07 A3021 RMK A01 T00891069  RH  032%=      5-min Rain = 0
KEA1 241724Z 04009KT 09/M07 A3021 RMK A01 T00851068  RH  033%=      5-min Rain = 0
KEA1 241725Z 03009KT 09/M06 A3021 RMK A01 T00901061  RH  034%=      5-min Rain = 0
KEA1 241726Z 03014KT 10/M06 A3021 RMK A01 T00951061  RH  033%=      5-min Rain = 0
KEA1 241727Z 03014KT 10/M06 A3021 RMK A01 T00961064  RH  032%=      5-min Rain = 0
KEA1 241728Z 04011KT 10/M07 A3021 RMK A01 T00971066  RH  031%=      5-min Rain = 0
KEA1 241729Z 04010KT 09/M07 A3021 RMK A01 T00941066  RH  032%=      5-min Rain = 0
KEA1 241730Z 01011KT 09/M07 A3021 RMK A01 T00921065  RH  032%=      5-min Rain = 0
KEA1 241731Z 04013KT 09/M07 A3021 RMK A01 T00921067  RH  032%=      5-min Rain = 0
KEA1 241732Z 04011KT 09/M07 A3021 RMK A01 T00931071  RH  031%=      5-min Rain = 0
KEA1 241733Z 03010KT 09/M07 A3021 RMK A01 T00941071  RH  030%=      5-min Rain = 0
KEA1 241734Z 02010KT 09/M07 A3021 RMK A01 T00921072  RH  031%=      5-min Rain = 0
KEA1 241735Z 04012KT 09/M07 A3021 RMK A01 T00921071  RH  031%=      5-min Rain = 0
KEA1 241736Z 03015KT 09/M07 A3021 RMK A01 T00921070  RH  031%=      5-min Rain = 0
KEA1 241737Z 04011KT 09/M07 A3021 RMK A01 T00921068  RH  032%=      5-min Rain = 0
KEA1 241738Z 04012KT 10/M06 A3021 RMK A01 T00961064  RH  032%=      5-min Rain = 0
KEA1 241739Z 04013KT 10/M07 A3021 RMK A01 T01001066  RH  030%=      5-min Rain = 0
KEA1 241740Z 04014KT 10/M07 A3021 RMK A01 T00981069  RH  030%=      5-min Rain = 0
KEA1 241741Z 03012KT 10/M07 A3021 RMK A01 T00951071  RH  030%=      5-min Rain = 0
KEA1 241742Z 04015KT 10/M07 A3021 RMK A01 T00961069  RH  031%=      5-min Rain = 0
KEA1 241743Z 03013KT 10/M07 A3021 RMK A01 T00971068  RH  031%=      5-min Rain = 0
KEA1 241744Z 03011KT 10/M07 A3021 RMK A01 T00981070  RH  030%=      5-min Rain = 0
KEA1 241745Z 02008G13KT 10/M07 A3021 RMK A01 T00951071  RH  030%=      5-min Rain = 0
KEA1 241746Z 03011KT 10/M07 A3021 RMK A01 T00961068  RH  031%=      5-min Rain = 0
KEA1 241747Z 05010KT 10/M07 A3021 RMK A01 T00991067  RH  030%=      5-min Rain = 0
KEA1 241748Z 03014KT 10/M07 A3021 RMK A01 T01001073  RH  029%=      5-min Rain = 0
KEA1 241749Z 03015KT 10/M07 A3021 RMK A01 T00981074  RH  029%=      5-min Rain = 0
KEA1 241750Z 04014KT 10/M08 A302 RMK A01 T01001077  RH  028%=      5-min Rain = 0
KEA1 241751Z 05011KT 10/M07 A3021 RMK A01 T01041074  RH  028%=      5-min Rain = 0
KEA1 241752Z 04016KT 11/M08 A302 RMK A01 T01081076  RH  027%=      5-min Rain = 0
KEA1 241753Z 02013KT 10/M07 A302 RMK A01 T01041074  RH  028%=      5-min Rain = 0
KEA1 241754Z 03011G16KT 10/M07 A302 RMK A01 T01041070  RH  029%=      5-min Rain = 0
KEA1 241755Z 03015KT 11/M07 A302 RMK A01 T01061074  RH  027%=      5-min Rain = 0
KEA1 241756Z 03013KT 10/M08 A302 RMK A01 T01021076  RH  028%=      5-min Rain = 0
KEA1 241757Z 03011KT 10/M07 A302 RMK A01 T01011074  RH  028%=      5-min Rain = 0
KEA1 241758Z 03016KT 10/M07 A302 RMK A01 T01001071  RH  029%=      5-min Rain = 0
KEA1 241759Z 04013KT 10/M07 A302 RMK A01 T01021072  RH  029%=      5-min Rain = 0
KEA1 241800Z 02011KT 10/M07 A302 RMK A01 T01011073  RH  029%=      5-min Rain = 0
KEA1 241801Z 05014KT 10/M07 A302 RMK A01 T01021074  RH  028%=      5-min Rain = 0
KEA1 241802Z 05011KT 10/M08 A302 RMK A01 T01021079  RH  027%=      5-min Rain = 0
KEA1 241803Z 07013KT 11/M08 A302 RMK A01 T01051079  RH  027%=      5-min Rain = 0
KEA1 241804Z 07011KT 10/M08 A302 RMK A01 T01041081  RH  026%=      5-min Rain = 0
KEA1 241805Z 04011KT 11/M08 A302 RMK A01 T01051078  RH  027%=      5-min Rain = 0
KEA1 241806Z 05014KT 11/M08 A302 RMK A01 T01081076  RH  027%=      5-min Rain = 0
KEA1 241807Z 04011KT 11/M08 A302 RMK A01 T01061079  RH  026%=      5-min Rain = 0
KEA1 241808Z 04011KT 11/M08 A302 RMK A01 T01061075  RH  027%=      5-min Rain = 0
KEA1 241809Z 05013KT 11/M07 A302 RMK A01 T01051073  RH  028%=      5-min Rain = 0
KEA1 241810Z 04012KT 11/M08 A302 RMK A01 T01051076  RH  027%=      5-min Rain = 0
KEA1 241811Z 05014KT 10/M08 A302 RMK A01 T01041081  RH  026%=      5-min Rain = 0
KEA1 241812Z 04014KT 11/M08 A302 RMK A01 T01051084  RH  026%=      5-min Rain = 0
KEA1 241813Z 05018KT 10/M09 A302 RMK A01 T01031086  RH  025%=      5-min Rain = 0
KEA1 241814Z 05015KT 10/M09 A302 RMK A01 T01041089  RH  025%=      5-min Rain = 0
KEA1 241815Z 06012KT 10/M09 A302 RMK A01 T01031088  RH  025%=      5-min Rain = 0
KEA1 241816Z 06009KT 11/M08 A302 RMK A01 T01051084  RH  026%=      5-min Rain = 0
KEA1 241817Z 06011KT 11/M08 A302 RMK A01 T01071082  RH  026%=      5-min Rain = 0
KEA1 241818Z 08011KT 11/M08 A302 RMK A01 T01071081  RH  026%=      5-min Rain = 0
KEA1 241819Z 07011KT 11/M08 A302 RMK A01 T01051080  RH  027%=      5-min Rain = 0
KEA1 241820Z 05013KT 10/M08 A302 RMK A01 T01041077  RH  027%=      5-min Rain = 0
KEA1 241821Z 06013KT 11/M08 A302 RMK A01 T01071077  RH  027%=      5-min Rain = 0
KEA1 241822Z 05013KT 11/M08 A3019 RMK A01 T01081078  RH  026%=      5-min Rain = 0
KEA1 241823Z 07013KT 11/M08 A302 RMK A01 T01091078  RH  026%=      5-min Rain = 0
KEA1 241824Z 06014KT 11/M08 A3019 RMK A01 T01121081  RH  025%=      5-min Rain = 0
KEA1 241825Z 08008KT 11/M08 A3019 RMK A01 T01091082  RH  025%=      5-min Rain = 0
KEA1 241826Z 07011KT 11/M08 A302 RMK A01 T01101076  RH  026%=      5-min Rain = 0
KEA1 241827Z 07013KT 11/M08 A302 RMK A01 T01111077  RH  026%=      5-min Rain = 0
KEA1 241828Z 06015KT 11/M08 A302 RMK A01 T01071082  RH  026%=      5-min Rain = 0
KEA1 241829Z 05015KT 11/M09 A3019 RMK A01 T01061085  RH  025%=      5-min Rain = 0
KEA1 241830Z 05016G21KT 11/M08 A3019 RMK A01 T01101083  RH  025%=      5-min Rain = 0
KEA1 241831Z 06014KT 11/M09 A3019 RMK A01 T01101085  RH  025%=      5-min Rain = 0
KEA1 241832Z 05012KT 11/M09 A3019 RMK A01 T01081085  RH  025%=      5-min Rain = 0
KEA1 241833Z 07010KT 11/M08 A3019 RMK A01 T01081084  RH  025%=      5-min Rain = 0
KEA1 241834Z 07009KT 11/M08 A3019 RMK A01 T01071084  RH  025%=      5-min Rain = 0
KEA1 241835Z 06011KT 11/M08 A3019 RMK A01 T01081080  RH  026%=      5-min Rain = 0
KEA1 241836Z 06014KT 11/M08 A3019 RMK A01 T01101080  RH  026%=      5-min Rain = 0
KEA1 241837Z 06013G18KT 11/M08 A3019 RMK A01 T01111080  RH  025%=      5-min Rain = 0
KEA1 241838Z 05010KT 11/M08 A3019 RMK A01 T01091083  RH  025%=      5-min Rain = 0
KEA1 241839Z 05010KT 11/M08 A3019 RMK A01 T01091082  RH  025%=      5-min Rain = 0
KEA1 241840Z 06008KT 11/M08 A3019 RMK A01 T01081080  RH  026%=      5-min Rain = 0
KEA1 241841Z 09007KT 11/M08 A3019 RMK A01 T01081077  RH  027%=      5-min Rain = 0
KEA1 241842Z 06011G16KT 11/M07 A3019 RMK A01 T01111073  RH  027%=      5-min Rain = 0
KEA1 241843Z 04014KT 11/M07 A3019 RMK A01 T01141072  RH  026%=      5-min Rain = 0
KEA1 241844Z 05017G22KT 12/M08 A3019 RMK A01 T01151076  RH  026%=      5-min Rain = 0
KEA1 241845Z 05015KT 11/M08 A3019 RMK A01 T01111081  RH  025%=      5-min Rain = 0
KEA1 241846Z 05011KT 11/M08 A3019 RMK A01 T01081080  RH  026%=      5-min Rain = 0
KEA1 241847Z 07007KT 11/M08 A3019 RMK A01 T01081078  RH  026%=      5-min Rain = 0
KEA1 241848Z 05008KT 11/M08 A3019 RMK A01 T01111076  RH  026%=      5-min Rain = 0
KEA1 241849Z 06011KT 12/M07 A3019 RMK A01 T01161073  RH  026%=      5-min Rain = 0
KEA1 241850Z 08008KT 12/M08 A3019 RMK A01 T01171077  RH  025%=      5-min Rain = 0
KEA1 241851Z 08006KT 11/M08 A3019 RMK A01 T01141080  RH  025%=      5-min Rain = 0
KEA1 241852Z 10006KT 11/M08 A3019 RMK A01 T01111080  RH  025%=      5-min Rain = 0
KEA1 241853Z 05007G12KT 11/M08 A3019 RMK A01 T01111077  RH  026%=      5-min Rain = 0
KEA1 241854Z 05012KT 12/M08 A3019 RMK A01 T01151076  RH  026%=      5-min Rain = 0
KEA1 241855Z 07012KT 12/M08 A3019 RMK A01 T01191080  RH  024%=      5-min Rain = 0
KEA1 241856Z 07012KT 12/M09 A3019 RMK A01 T01191085  RH  023%=      5-min Rain = 0
KEA1 241857Z 06010KT 12/M08 A3019 RMK A01 T01181084  RH  024%=      5-min Rain = 0
KEA1 241858Z 07008KT 12/M08 A3019 RMK A01 T01181083  RH  024%=      5-min Rain = 0
KEA1 241859Z 09006KT 12/M08 A3019 RMK A01 T01181081  RH  024%=      5-min Rain = 0
KEA1 241900Z 09006KT 12/M08 A3019 RMK A01 T01191080  RH  024%=      5-min Rain = 0
KEA1 241901Z 09009KT 12/M08 A3019 RMK A01 T01221081  RH  024%=      5-min Rain = 0
KEA1 241902Z 08010KT 12/M08 A3019 RMK A01 T01201084  RH  023%=      5-min Rain = 0
KEA1 241903Z 08011KT 12/M08 A3019 RMK A01 T01191081  RH  024%=      5-min Rain = 0
KEA1 241904Z 07013KT 12/M08 A3019 RMK A01 T01191081  RH  024%=      5-min Rain = 0
KEA1 241905Z 08009KT 12/M08 A3019 RMK A01 T01161083  RH  024%=      5-min Rain = 0
KEA1 241906Z 09008KT 12/M08 A3019 RMK A01 T01161079  RH  025%=      5-min Rain = 0
KEA1 241907Z 07010KT 12/M08 A3019 RMK A01 T01191078  RH  024%=      5-min Rain = 0
KEA1 241908Z 05011KT 12/M08 A3019 RMK A01 T01181079  RH  024%=      5-min Rain = 0
KEA1 241909Z 04008KT 12/M08 A3019 RMK A01 T01151081  RH  024%=      5-min Rain = 0
KEA1 241910Z 05009KT 12/M08 A3019 RMK A01 T01151079  RH  025%=      5-min Rain = 0
KEA1 241911Z 05008KT 12/M08 A3018 RMK A01 T01151078  RH  025%=      5-min Rain = 0
KEA1 241912Z 06009KT 11/M08 A3018 RMK A01 T01141079  RH  025%=      5-min Rain = 0
KEA1 241913Z 06008KT 11/M08 A3018 RMK A01 T01141078  RH  025%=      5-min Rain = 0
KEA1 241914Z 10006KT 12/M08 A3018 RMK A01 T01171076  RH  025%=      5-min Rain = 0
KEA1 241915Z 09007KT 12/M08 A3018 RMK A01 T01201075  RH  025%=      5-min Rain = 0
KEA1 241916Z 07013KT 12/M07 A3018 RMK A01 T01241073  RH  025%=      5-min Rain = 0
KEA1 241917Z 07012KT 12/M08 A3018 RMK A01 T01231079  RH  024%=      5-min Rain = 0
KEA1 241918Z 07009KT 12/M08 A3018 RMK A01 T01191079  RH  024%=      5-min Rain = 0
KEA1 241919Z 07008KT 12/M08 A3018 RMK A01 T01201076  RH  025%=      5-min Rain = 0
KEA1 241920Z 07006KT 12/M08 A3018 RMK A01 T01221078  RH  024%=      5-min Rain = 0
KEA1 241921Z 06008KT 12/M08 A3018 RMK A01 T01201079  RH  024%=      5-min Rain = 0
KEA1 241922Z 08009KT 12/M07 A3018 RMK A01 T01231074  RH  025%=      5-min Rain = 0
KEA1 241923Z 08012KT 13/M08 A3018 RMK A01 T01281077  RH  023%=      5-min Rain = 0
KEA1 241924Z 07010KT 12/M08 A3018 RMK A01 T01241080  RH  023%=      5-min Rain = 0
KEA1 241925Z 08007KT 12/M08 A3018 RMK A01 T01201082  RH  024%=      5-min Rain = 0
KEA1 241926Z 08008KT 12/M08 A3017 RMK A01 T01171081  RH  024%=      5-min Rain = 0
KEA1 241927Z 08009KT 12/M08 A3017 RMK A01 T01211078  RH  024%=      5-min Rain = 0
KEA1 241928Z 08009KT 12/M08 A3017 RMK A01 T01231079  RH  024%=      5-min Rain = 0
KEA1 241929Z 08007KT 12/M08 A3017 RMK A01 T01231081  RH  023%=      5-min Rain = 0
KEA1 241930Z 07007KT 12/M08 A3017 RMK A01 T01211082  RH  023%=      5-min Rain = 0
KEA1 241931Z 07013KT 12/M08 A3017 RMK A01 T01211082  RH  023%=      5-min Rain = 0
KEA1 241932Z 06012KT 12/M08 A3017 RMK A01 T01221083  RH  023%=      5-min Rain = 0
KEA1 241933Z 07011KT 12/M09 A3017 RMK A01 T01211085  RH  023%=      5-min Rain = 0
KEA1 241934Z 07013KT 12/M08 A3017 RMK A01 T01201083  RH  023%=      5-min Rain = 0
KEA1 241935Z 07013KT 12/M08 A3017 RMK A01 T01231081  RH  023%=      5-min Rain = 0
KEA1 241936Z 07011KT 12/M09 A3017 RMK A01 T01231085  RH  023%=      5-min Rain = 0
KEA1 241937Z 09005KT 12/M09 A3016 RMK A01 T01211087  RH  023%=      5-min Rain = 0
KEA1 241938Z 07006KT 12/M09 A3016 RMK A01 T01191085  RH  023%=      5-min Rain = 0
KEA1 241939Z 06010KT 12/M08 A3016 RMK A01 T01221081  RH  023%=      5-min Rain = 0
KEA1 241940Z 05009KT 12/M08 A3016 RMK A01 T01231082  RH  023%=      5-min Rain = 0
KEA1 241941Z 05007KT 12/M08 A3016 RMK A01 T01191083  RH  023%=      5-min Rain = 0
KEA1 241942Z 04005KT 12/M08 A3015 RMK A01 T01201081  RH  024%=      5-min Rain = 0
KEA1 241943Z 05008KT 12/M08 A3015 RMK A01 T01241077  RH  024%=      5-min Rain = 0
KEA1 241944Z 05010KT 13/M08 A3015 RMK A01 T01261078  RH  023%=      5-min Rain = 0
KEA1 241945Z 05008KT 13/M08 A3015 RMK A01 T01291077  RH  023%=      5-min Rain = 0
KEA1 241946Z 06010KT 13/M08 A3015 RMK A01 T01271081  RH  023%=      5-min Rain = 0
KEA1 241947Z 06014KT 13/M08 A3015 RMK A01 T01271080  RH  023%=      5-min Rain = 0
KEA1 241948Z 08014KT 13/M08 A3015 RMK A01 T01271081  RH  023%=      5-min Rain = 0
KEA1 241949Z 07014KT 13/M08 A3015 RMK A01 T01291079  RH  023%=      5-min Rain = 0
KEA1 241950Z 07012KT 13/M08 A3015 RMK A01 T01271082  RH  022%=      5-min Rain = 0
KEA1 241951Z 07009KT 12/M08 A3015 RMK A01 T01241082  RH  023%=      5-min Rain = 0
KEA1 241952Z 08005KT 13/M08 A3015 RMK A01 T01251081  RH  023%=      5-min Rain = 0
KEA1 241953Z 08005KT 13/M08 A3015 RMK A01 T01261080  RH  023%=      5-min Rain = 0
KEA1 241954Z 06009G14KT 13/M08 A3015 RMK A01 T01261079  RH  023%=      5-min Rain = 0
KEA1 241955Z 04010KT 13/M08 A3014 RMK A01 T01281078  RH  023%=      5-min Rain = 0
KEA1 241956Z 04008KT 13/M08 A3014 RMK A01 T01251080  RH  023%=      5-min Rain = 0
KEA1 241957Z 06008KT 12/M08 A3014 RMK A01 T01221080  RH  024%=      5-min Rain = 0
KEA1 241958Z 08010KT 12/M08 A3014 RMK A01 T01241079  RH  024%=      5-min Rain = 0
KEA1 241959Z 06010KT 13/M08 A3014 RMK A01 T01281077  RH  023%=      5-min Rain = 0
KEA1 242000Z 05011KT 13/M08 A3014 RMK A01 T01291079  RH  023%=      5-min Rain = 0
KEA1 242001Z 06009KT 13/M08 A3014 RMK A01 T01281079  RH  023%=      5-min Rain = 0
KEA1 242002Z 04009KT 13/M08 A3014 RMK A01 T01281080  RH  023%=      5-min Rain = 0
KEA1 242003Z 07012KT 13/M08 A3014 RMK A01 T01271080  RH  023%=      5-min Rain = 0
KEA1 242004Z 08012KT 13/M08 A3014 RMK A01 T01271081  RH  023%=      5-min Rain = 0
KEA1 242005Z 08006KT 13/M08 A3014 RMK A01 T01261083  RH  023%=      5-min Rain = 0
KEA1 242006Z 06007G12KT 12/M08 A3014 RMK A01 T01241081  RH  023%=      5-min Rain = 0
KEA1 242007Z 06008KT 13/M08 A3014 RMK A01 T01261082  RH  023%=      5-min Rain = 0
KEA1 242008Z 06007KT 12/M09 A3014 RMK A01 T01231086  RH  022%=      5-min Rain = 0
KEA1 242009Z 04008G14KT 12/M08 A3014 RMK A01 T01231081  RH  023%=      5-min Rain = 0
KEA1 242010Z 06011KT 13/M08 A3014 RMK A01 T01281080  RH  023%=      5-min Rain = 0
KEA1 242011Z 07010KT 13/M08 A3014 RMK A01 T01311082  RH  022%=      5-min Rain = 0
KEA1 242012Z 06008KT 13/M08 A3014 RMK A01 T01291083  RH  022%=      5-min Rain = 0
KEA1 242013Z 07008KT 13/M09 A3014 RMK A01 T01261085  RH  022%=      5-min Rain = 0
KEA1 242014Z 07009KT 13/M08 A3014 RMK A01 T01261081  RH  023%=      5-min Rain = 0
KEA1 242015Z 08007G12KT 13/M08 A3014 RMK A01 T01291081  RH  022%=      5-min Rain = 0
KEA1 242016Z 06010KT 13/M08 A3014 RMK A01 T01291080  RH  023%=      5-min Rain = 0
KEA1 242017Z 06011KT 13/M08 A3013 RMK A01 T01301080  RH  022%=      5-min Rain = 0
KEA1 242018Z 06008KT 13/M08 A3013 RMK A01 T01271082  RH  022%=      5-min Rain = 0
KEA1 242019Z 06010KT 13/M08 A3013 RMK A01 T01281080  RH  023%=      5-min Rain = 0
KEA1 242020Z 06010KT 13/M08 A3013 RMK A01 T01311078  RH  023%=      5-min Rain = 0
KEA1 242021Z 09008KT 13/M08 A3013 RMK A01 T01321080  RH  022%=      5-min Rain = 0
KEA1 242022Z 07009KT 13/M08 A3013 RMK A01 T01321079  RH  022%=      5-min Rain = 0
KEA1 242023Z 05009KT 13/M08 A3013 RMK A01 T01321080  RH  022%=      5-min Rain = 0
KEA1 242024Z 06008KT 13/M08 A3013 RMK A01 T01321078  RH  023%=      5-min Rain = 0
KEA1 242025Z 06009KT 14/M08 A3013 RMK A01 T01351077  RH  022%=      5-min Rain = 0
KEA1 242026Z 09008KT 13/M08 A3013 RMK A01 T01331079  RH  022%=      5-min Rain = 0
KEA1 242027Z 11009KT 13/M08 A3013 RMK A01 T01331080  RH  022%=      5-min Rain = 0
KEA1 242028Z 10011KT 13/M08 A3013 RMK A01 T01341079  RH  022%=      5-min Rain = 0
KEA1 242029Z 10010KT 14/M08 A3013 RMK A01 T01361080  RH  022%=      5-min Rain = 0
KEA1 242030Z 12008KT 13/M08 A3013 RMK A01 T01341081  RH  022%=      5-min Rain = 0
KEA1 242031Z 13012KT 14/M08 A3013 RMK A01 T01351080  RH  022%=      5-min Rain = 0
KEA1 242032Z 13009KT 14/M08 A3013 RMK A01 T01351081  RH  022%=      5-min Rain = 0
KEA1 242033Z 12007KT 14/M08 A3013 RMK A01 T01361080  RH  022%=      5-min Rain = 0
KEA1 242034Z 06012KT 14/M08 A3013 RMK A01 T01361079  RH  022%=      5-min Rain = 0
KEA1 242035Z 07011KT 14/M08 A3013 RMK A01 T01381078  RH  022%=      5-min Rain = 0
KEA1 242036Z 08011KT 14/M08 A3013 RMK A01 T01361081  RH  021%=      5-min Rain = 0
KEA1 242037Z 08008KT 13/M08 A3013 RMK A01 T01321083  RH  022%=      5-min Rain = 0
KEA1 242038Z 06008KT 13/M08 A3013 RMK A01 T01311081  RH  022%=      5-min Rain = 0
KEA1 242039Z 05012KT 13/M08 A3013 RMK A01 T01341079  RH  022%=      5-min Rain = 0
KEA1 242040Z 07011KT 14/M08 A3013 RMK A01 T01371078  RH  022%=      5-min Rain = 0
KEA1 242041Z 09008KT 14/M08 A3013 RMK A01 T01381079  RH  022%=      5-min Rain = 0
KEA1 242042Z 09006KT 14/M08 A3013 RMK A01 T01371079  RH  022%=      5-min Rain = 0
KEA1 242043Z 08006KT 14/M08 A3013 RMK A01 T01361081  RH  021%=      5-min Rain = 0
KEA1 242044Z 07008G15KT 13/M08 A3013 RMK A01 T01341080  RH  022%=      5-min Rain = 0
KEA1 242045Z 06012KT 14/M08 A3013 RMK A01 T01351079  RH  022%=      5-min Rain = 0
KEA1 242046Z 06010KT 14/M08 A3013 RMK A01 T01351080  RH  022%=      5-min Rain = 0
KEA1 242047Z 09008KT 14/M08 A3013 RMK A01 T01351079  RH  022%=      5-min Rain = 0
KEA1 242048Z 08009KT 14/M08 A3013 RMK A01 T01381077  RH  022%=      5-min Rain = 0
KEA1 242049Z 07011KT 14/M08 A3013 RMK A01 T01391078  RH  022%=      5-min Rain = 0
KEA1 242050Z 10009KT 14/M08 A3013 RMK A01 T01391077  RH  022%=      5-min Rain = 0
KEA1 242051Z 10007KT 14/M08 A3013 RMK A01 T01411077  RH  021%=      5-min Rain = 0
KEA1 242052Z 10008KT 14/M08 A3013 RMK A01 T01401079  RH  021%=      5-min Rain = 0
KEA1 242053Z 12010G16KT 14/M08 A3012 RMK A01 T01371078  RH  022%=      5-min Rain = 0
KEA1 242054Z 09009KT 14/M08 A3013 RMK A01 T01381078  RH  022%=      5-min Rain = 0
KEA1 242055Z 10009KT 14/M08 A3012 RMK A01 T01381078  RH  022%=      5-min Rain = 0
KEA1 242056Z 09011KT 14/M08 A3012 RMK A01 T01381077  RH  022%=      5-min Rain = 0
KEA1 242057Z 09008KT 14/M08 A3012 RMK A01 T01371078  RH  022%=      5-min Rain = 0
KEA1 242058Z 10005KT 13/M08 A3012 RMK A01 T01331080  RH  022%=      5-min Rain = 0
KEA1 242059Z 09007KT 13/M08 A3012 RMK A01 T01321078  RH  022%=      5-min Rain = 0
KEA1 242100Z 08010KT 13/M08 A3012 RMK A01 T01331077  RH  022%=      5-min Rain = 0
KEA1 242101Z 07009KT 13/M08 A3012 RMK A01 T01321078  RH  022%=      5-min Rain = 0
KEA1 242102Z 09010KT 14/M08 A3012 RMK A01 T01351076  RH  022%=      5-min Rain = 0
KEA1 242103Z 08009KT 14/M08 A3012 RMK A01 T01351077  RH  022%=      5-min Rain = 0
KEA1 242104Z 07012KT 14/M07 A3012 RMK A01 T01371074  RH  022%=      5-min Rain = 0
KEA1 242105Z 08008KT 14/M08 A3012 RMK A01 T01391075  RH  022%=      5-min Rain = 0
KEA1 242106Z 09006KT 14/M07 A3012 RMK A01 T01431073  RH  022%=      5-min Rain = 0
KEA1 242107Z 11010KT 15/M07 A3012 RMK A01 T01451074  RH  021%=      5-min Rain = 0
KEA1 242108Z 12011G16KT 14/M08 A3012 RMK A01 T01441075  RH  021%=      5-min Rain = 0
KEA1 242109Z 12012KT 14/M08 A3012 RMK A01 T01421077  RH  021%=      5-min Rain = 0
KEA1 242110Z 12009KT 14/M08 A3012 RMK A01 T01381079  RH  021%=      5-min Rain = 0
KEA1 242111Z 14007KT 14/M08 A3012 RMK A01 T01371078  RH  022%=      5-min Rain = 0
KEA1 242112Z 13008KT 14/M08 A3011 RMK A01 T01371077  RH  022%=      5-min Rain = 0
KEA1 242113Z 11010G15KT 14/M08 A3011 RMK A01 T01381076  RH  022%=      5-min Rain = 0
KEA1 242114Z 10011KT 14/M08 A3011 RMK A01 T01381076  RH  022%=      5-min Rain = 0
KEA1 242115Z 09008KT 14/M08 A3011 RMK A01 T01381075  RH  022%=      5-min Rain = 0
KEA1 242116Z 11008KT 14/M08 A3011 RMK A01 T01381075  RH  022%=      5-min Rain = 0
KEA1 242117Z 11005KT 14/M08 A3011 RMK A01 T01381075  RH  022%=      5-min Rain = 0
KEA1 242118Z 09005KT 14/M08 A3011 RMK A01 T01361077  RH  022%=      5-min Rain = 0
KEA1 242119Z 09005KT 14/M08 A3011 RMK A01 T01351076  RH  022%=      5-min Rain = 0
KEA1 242120Z 11009KT 14/M07 A3011 RMK A01 T01381072  RH  023%=      5-min Rain = 0
KEA1 242121Z 10007KT 14/M07 A3011 RMK A01 T01431071  RH  022%=      5-min Rain = 0
KEA1 242122Z 09010G15KT 14/M07 A3011 RMK A01 T01431073  RH  022%=      5-min Rain = 0
KEA1 242123Z 09009KT 14/M07 A3011 RMK A01 T01421073  RH  022%=      5-min Rain = 0
KEA1 242124Z 07011KT 14/M07 A3011 RMK A01 T01411074  RH  022%=      5-min Rain = 0
KEA1 242125Z 07008KT 14/M07 A3011 RMK A01 T01391074  RH  022%=      5-min Rain = 0
KEA1 242126Z 09007KT 14/M07 A3011 RMK A01 T01391073  RH  022%=      5-min Rain = 0
KEA1 242127Z 08007KT 14/M07 A3011 RMK A01 T01391072  RH  022%=      5-min Rain = 0
KEA1 242128Z 09008KT 14/M07 A3011 RMK A01 T01401073  RH  022%=      5-min Rain = 0
KEA1 242129Z 10007KT 14/M07 A3011 RMK A01 T01401072  RH  022%=      5-min Rain = 0
KEA1 242130Z 09007KT 14/M07 A3011 RMK A01 T01391072  RH  023%=      5-min Rain = 0
KEA1 242131Z 08009KT 14/M07 A3011 RMK A01 T01411071  RH  022%=      5-min Rain = 0
KEA1 242132Z 07009KT 14/M07 A3011 RMK A01 T01411072  RH  022%=      5-min Rain = 0
KEA1 242133Z 10011KT 14/M07 A3011 RMK A01 T01391072  RH  022%=      5-min Rain = 0
KEA1 242134Z 10010KT 14/M07 A3011 RMK A01 T01391071  RH  023%=      5-min Rain = 0
KEA1 242135Z 12010KT 14/M07 A3011 RMK A01 T01371072  RH  023%=      5-min Rain = 0
KEA1 242136Z 12010KT 14/M07 A3011 RMK A01 T01371071  RH  023%=      5-min Rain = 0
KEA1 242137Z 14007KT 14/M07 A3011 RMK A01 T01371071  RH  023%=      5-min Rain = 0
KEA1 242138Z 12007KT 14/M07 A3011 RMK A01 T01371071  RH  023%=      5-min Rain = 0
KEA1 242139Z 12005KT 14/M07 A3011 RMK A01 T01391069  RH  023%=      5-min Rain = 0
KEA1 242140Z 10004KT 14/M07 A3011 RMK A01 T01431066  RH  023%=      5-min Rain = 0
KEA1 242141Z 08007KT 15/M07 A3011 RMK A01 T01461066  RH  022%=      5-min Rain = 0
KEA1 242142Z 08005G10KT 15/M07 A3011 RMK A01 T01451069  RH  022%=      5-min Rain = 0
KEA1 242143Z 07007KT 14/M07 A3011 RMK A01 T01411069  RH  023%=      5-min Rain = 0
KEA1 242144Z 10005KT 14/M07 A3011 RMK A01 T01421068  RH  023%=      5-min Rain = 0
KEA1 242145Z 10009G15KT 14/M07 A3011 RMK A01 T01401069  RH  023%=      5-min Rain = 0
KEA1 242146Z 11012KT 14/M07 A3011 RMK A01 T01411067  RH  023%=      5-min Rain = 0
KEA1 242147Z 10011KT 14/M07 A3011 RMK A01 T01411067  RH  023%=      5-min Rain = 0
KEA1 242148Z 10010KT 14/M07 A3011 RMK A01 T01401069  RH  023%=      5-min Rain = 0
KEA1 242149Z 08009KT 14/M07 A3011 RMK A01 T01381069  RH  023%=      5-min Rain = 0
KEA1 242150Z 08009KT 14/M07 A3011 RMK A01 T01361070  RH  023%=      5-min Rain = 0
KEA1 242151Z 08010KT 14/M07 A3011 RMK A01 T01361068  RH  024%=      5-min Rain = 0
KEA1 242152Z 09008KT 14/M07 A3011 RMK A01 T01391067  RH  023%=      5-min Rain = 0
KEA1 242153Z 09008KT 14/M07 A3011 RMK A01 T01391068  RH  023%=      5-min Rain = 0
KEA1 242154Z 09005KT 14/M07 A3011 RMK A01 T01381068  RH  023%=      5-min Rain = 0
KEA1 242155Z 13013G19KT 14/M07 A301 RMK A01 T01401065  RH  024%=      5-min Rain = 0
KEA1 242156Z 14014KT 14/M07 A301 RMK A01 T01421065  RH  023%=      5-min Rain = 0
KEA1 242157Z 13012KT 14/M07 A301 RMK A01 T01431065  RH  023%=      5-min Rain = 0
KEA1 242158Z 13010KT 14/M07 A301 RMK A01 T01431065  RH  023%=      5-min Rain = 0
KEA1 242159Z 13008KT 14/M07 A301 RMK A01 T01431066  RH  023%=      5-min Rain = 0
KEA1 242200Z 13005KT 14/M07 A301 RMK A01 T01411066  RH  023%=      5-min Rain = 0
KEA1 242201Z 11004KT 14/M07 A301 RMK A01 T01411065  RH  023%=      5-min Rain = 0
KEA1 242202Z 10008KT 14/M06 A3011 RMK A01 T01431063  RH  024%=      5-min Rain = 0
KEA1 242203Z 11009KT 14/M07 A3011 RMK A01 T01441065  RH  023%=      5-min Rain = 0
KEA1 242204Z 13011KT 14/M07 A3011 RMK A01 T01441065  RH  023%=      5-min Rain = 0
KEA1 242205Z 14009KT 14/M07 A3011 RMK A01 T01421066  RH  023%=      5-min Rain = 0
KEA1 242206Z 14007KT 14/M07 A3011 RMK A01 T01401066  RH  023%=      5-min Rain = 0
KEA1 242207Z 14007KT 14/M07 A3011 RMK A01 T01391066  RH  024%=      5-min Rain = 0
KEA1 242208Z 12008KT 14/M07 A3011 RMK A01 T01401065  RH  024%=      5-min Rain = 0
KEA1 242209Z 10010KT 14/M06 A3011 RMK A01 T01421064  RH  023%=      5-min Rain = 0
KEA1 242210Z 09009KT 14/M07 A3011 RMK A01 T01421065  RH  023%=      5-min Rain = 0
KEA1 242211Z 09006KT 14/M07 A3011 RMK A01 T01401067  RH  023%=      5-min Rain = 0
KEA1 242212Z 09009KT 14/M07 A3011 RMK A01 T01391065  RH  024%=      5-min Rain = 0
KEA1 242213Z 10007KT 14/M07 A3011 RMK A01 T01391066  RH  023%=      5-min Rain = 0
KEA1 242214Z 09005KT 14/M07 A3011 RMK A01 T01381067  RH  024%=      5-min Rain = 0
KEA1 242215Z 10010KT 14/M07 A3011 RMK A01 T01391065  RH  024%=      5-min Rain = 0
KEA1 242216Z 09008KT 14/M07 A3011 RMK A01 T01391065  RH  024%=      5-min Rain = 0
KEA1 242217Z 10008KT 14/M06 A3011 RMK A01 T01401064  RH  024%=      5-min Rain = 0
KEA1 242218Z 08008KT 14/M06 A3011 RMK A01 T01401064  RH  024%=      5-min Rain = 0
KEA1 242219Z 08008KT 14/M06 A3011 RMK A01 T01401064  RH  024%=      5-min Rain = 0
KEA1 242220Z 09008KT 14/M06 A3011 RMK A01 T01401064  RH  024%=      5-min Rain = 0
KEA1 242221Z 11006KT 14/M06 A3011 RMK A01 T01401063  RH  024%=      5-min Rain = 0
KEA1 242222Z 10008KT 14/M06 A3011 RMK A01 T01411063  RH  024%=      5-min Rain = 0
KEA1 242223Z 10008KT 14/M07 A3011 RMK A01 T01401065  RH  024%=      5-min Rain = 0
KEA1 242224Z 10006KT 14/M07 A3011 RMK A01 T01381065  RH  024%=      5-min Rain = 0
KEA1 242225Z 11006KT 14/M06 A3011 RMK A01 T01381064  RH  024%=      5-min Rain = 0
KEA1 242226Z 10006KT 14/M06 A3011 RMK A01 T01401063  RH  024%=      5-min Rain = 0
KEA1 242227Z 12007KT 14/M06 A3011 RMK A01 T01421062  RH  024%=      5-min Rain = 0
KEA1 242228Z 11008KT 14/M06 A3011 RMK A01 T01431062  RH  024%=      5-min Rain = 0
KEA1 242229Z 09009KT 14/M06 A3011 RMK A01 T01431063  RH  023%=      5-min Rain = 0
KEA1 242230Z 09008KT 14/M06 A3011 RMK A01 T01401064  RH  024%=      5-min Rain = 0
KEA1 242231Z 10008KT 14/M06 A3011 RMK A01 T01401062  RH  024%=      5-min Rain = 0
KEA1 242232Z 11009KT 14/M06 A3011 RMK A01 T01421062  RH  024%=      5-min Rain = 0
KEA1 242233Z 11009KT 14/M06 A3011 RMK A01 T01401064  RH  024%=      5-min Rain = 0
KEA1 242234Z 11007KT 14/M06 A3011 RMK A01 T01391064  RH  024%=      5-min Rain = 0
KEA1 242235Z 10005KT 14/M06 A301 RMK A01 T01381064  RH  024%=      5-min Rain = 0
KEA1 242236Z 09006KT 14/M06 A3011 RMK A01 T01381063  RH  024%=      5-min Rain = 0
KEA1 242237Z 09006KT 14/M07 A3011 RMK A01 T01371065  RH  024%=      5-min Rain = 0
KEA1 242238Z 08007KT 14/M06 A3011 RMK A01 T01371064  RH  024%=      5-min Rain = 0
KEA1 242239Z 07008KT 14/M06 A3011 RMK A01 T01381064  RH  024%=      5-min Rain = 0
KEA1 242240Z 08010G20KT 14/M06 A3011 RMK A01 T01391063  RH  024%=      5-min Rain = 0
KEA1 242241Z 09007KT 14/M06 A3011 RMK A01 T01421060  RH  024%=      5-min Rain = 0
KEA1 242242Z 10006KT 14/M06 A3011 RMK A01 T01431061  RH  024%=      5-min Rain = 0
KEA1 242243Z 12004KT 14/M06 A3011 RMK A01 T01411063  RH  024%=      5-min Rain = 0
KEA1 242244Z 12003KT 14/M06 A3011 RMK A01 T01391063  RH  024%=      5-min Rain = 0
KEA1 242245Z 09005KT 14/M06 A3011 RMK A01 T01391062  RH  024%=      5-min Rain = 0
KEA1 242246Z 07009KT 14/M06 A3011 RMK A01 T01391061  RH  024%=      5-min Rain = 0
KEA1 242247Z 07006KT 14/M06 A3011 RMK A01 T01381063  RH  024%=      5-min Rain = 0
KEA1 242248Z 09005KT 14/M06 A3011 RMK A01 T01371064  RH  024%=      5-min Rain = 0
KEA1 242249Z 09006KT 14/M06 A3011 RMK A01 T01361063  RH  025%=      5-min Rain = 0
KEA1 242250Z 10009KT 14/M06 A3011 RMK A01 T01371061  RH  025%=      5-min Rain = 0
KEA1 242251Z 10008KT 14/M06 A3011 RMK A01 T01371061  RH  025%=      5-min Rain = 0
KEA1 242252Z 11008KT 14/M06 A3011 RMK A01 T01381061  RH  025%=      5-min Rain = 0
KEA1 242253Z 12008KT 14/M06 A3011 RMK A01 T01381061  RH  025%=      5-min Rain = 0
KEA1 242254Z 11008KT 14/M06 A301 RMK A01 T01381061  RH  025%=      5-min Rain = 0
KEA1 242255Z 11008KT 14/M06 A301 RMK A01 T01381061  RH  025%=      5-min Rain = 0
KEA1 242256Z 11007KT 14/M06 A301 RMK A01 T01381061  RH  025%=      5-min Rain = 0
KEA1 242257Z 11008KT 14/M06 A301 RMK A01 T01371061  RH  025%=      5-min Rain = 0
KEA1 242258Z 11008KT 14/M06 A3011 RMK A01 T01371061  RH  025%=      5-min Rain = 0
KEA1 242259Z 08006KT 14/M06 A3011 RMK A01 T01381061  RH  025%=      5-min Rain = 0
KEA1 242300Z 08005KT 14/M06 A3011 RMK A01 T01371062  RH  025%=      5-min Rain = 0
KEA1 242301Z 11008KT 14/M06 A3011 RMK A01 T01381060  RH  025%=      5-min Rain = 0
KEA1 242302Z 11007KT 14/M06 A3011 RMK A01 T01401060  RH  025%=      5-min Rain = 0
KEA1 242303Z 11009KT 14/M06 A3011 RMK A01 T01401060  RH  025%=      5-min Rain = 0
KEA1 242304Z 10010KT 14/M06 A3011 RMK A01 T01401060  RH  024%=      5-min Rain = 0
KEA1 242305Z 11010KT 14/M06 A3011 RMK A01 T01391060  RH  025%=      5-min Rain = 0
KEA1 242306Z 09008KT 14/M06 A3011 RMK A01 T01381060  RH  025%=      5-min Rain = 0
KEA1 242307Z 09011KT 14/M06 A3011 RMK A01 T01381060  RH  025%=      5-min Rain = 0
KEA1 242308Z 11010KT 14/M06 A3011 RMK A01 T01381060  RH  025%=      5-min Rain = 0
KEA1 242309Z 13011KT 14/M06 A3011 RMK A01 T01381059  RH  025%=      5-min Rain = 0
KEA1 242310Z 12010KT 14/M06 A3011 RMK A01 T01391060  RH  025%=      5-min Rain = 0
KEA1 242311Z 12007KT 14/M06 A3011 RMK A01 T01391059  RH  025%=      5-min Rain = 0
KEA1 242312Z 10006KT 14/M06 A3011 RMK A01 T01401059  RH  025%=      5-min Rain = 0
KEA1 242313Z 12008KT 14/M06 A3011 RMK A01 T01401060  RH  025%=      5-min Rain = 0
KEA1 242314Z 12007KT 14/M06 A3011 RMK A01 T01381061  RH  025%=      5-min Rain = 0
KEA1 242315Z 11005KT 14/M06 A3011 RMK A01 T01381060  RH  025%=      5-min Rain = 0
KEA1 242316Z 11007KT 14/M06 A3011 RMK A01 T01381060  RH  025%=      5-min Rain = 0
KEA1 242317Z 09005KT 14/M06 A3011 RMK A01 T01381060  RH  025%=      5-min Rain = 0
KEA1 242318Z 09005KT 14/M06 A301 RMK A01 T01381060  RH  025%=      5-min Rain = 0
KEA1 242319Z 10004KT 14/M06 A301 RMK A01 T01361061  RH  025%=      5-min Rain = 0
KEA1 242320Z 13008KT 14/M06 A301 RMK A01 T01371059  RH  025%=      5-min Rain = 0
KEA1 242321Z 13010KT 14/M06 A301 RMK A01 T01381058  RH  025%=      5-min Rain = 0
KEA1 242322Z 13009KT 14/M06 A301 RMK A01 T01381059  RH  025%=      5-min Rain = 0
KEA1 242323Z 11009KT 14/M06 A301 RMK A01 T01381059  RH  025%=      5-min Rain = 0
KEA1 242324Z 10010KT 14/M06 A301 RMK A01 T01381059  RH  025%=      5-min Rain = 0
KEA1 242325Z 11011KT 14/M06 A301 RMK A01 T01381059  RH  025%=      5-min Rain = 0
KEA1 242326Z 11009KT 14/M06 A301 RMK A01 T01371060  RH  025%=      5-min Rain = 0
KEA1 242327Z 10007KT 14/M06 A301 RMK A01 T01361060  RH  025%=      5-min Rain = 0
KEA1 242328Z 10007KT 14/M06 A301 RMK A01 T01351060  RH  025%=      5-min Rain = 0
KEA1 242329Z 10005KT 14/M06 A301 RMK A01 T01351060  RH  025%=      5-min Rain = 0
KEA1 242330Z 11006KT 13/M06 A301 RMK A01 T01341060  RH  025%=      5-min Rain = 0
KEA1 242331Z 09006KT 14/M06 A301 RMK A01 T01351059  RH  025%=      5-min Rain = 0
KEA1 242332Z 10005KT 14/M06 A301 RMK A01 T01351059  RH  025%=      5-min Rain = 0
KEA1 242333Z 10006KT 14/M06 A301 RMK A01 T01351060  RH  025%=      5-min Rain = 0
KEA1 242334Z 08006KT 14/M06 A301 RMK A01 T01351059  RH  025%=      5-min Rain = 0
KEA1 242335Z 09008KT 14/M06 A301 RMK A01 T01361059  RH  025%=      5-min Rain = 0
KEA1 242336Z 09008KT 14/M06 A301 RMK A01 T01351060  RH  025%=      5-min Rain = 0
KEA1 242337Z 09008KT 14/M06 A301 RMK A01 T01351060  RH  025%=      5-min Rain = 0
KEA1 242338Z 10009KT 13/M06 A3011 RMK A01 T01341059  RH  025%=      5-min Rain = 0
KEA1 242339Z 09006KT 14/M06 A301 RMK A01 T01351060  RH  025%=      5-min Rain = 0
KEA1 242340Z 09008KT 14/M06 A301 RMK A01 T01351059  RH  026%=      5-min Rain = 0
KEA1 242341Z 11010KT 13/M06 A301 RMK A01 T01341060  RH  025%=      5-min Rain = 0
KEA1 242342Z 11011KT 14/M06 A301 RMK A01 T01351059  RH  026%=      5-min Rain = 0
KEA1 242343Z 10008KT 13/M06 A301 RMK A01 T01341059  RH  026%=      5-min Rain = 0
KEA1 242344Z 11007KT 13/M06 A301 RMK A01 T01341059  RH  026%=      5-min Rain = 0
KEA1 242345Z 11007KT 14/M06 A301 RMK A01 T01351058  RH  026%=      5-min Rain = 0
KEA1 242346Z 11010KT 14/M06 A301 RMK A01 T01351059  RH  025%=      5-min Rain = 0
KEA1 242347Z 11008KT 14/M06 A301 RMK A01 T01351059  RH  025%=      5-min Rain = 0
KEA1 242348Z 10009KT 14/M06 A301 RMK A01 T01351060  RH  025%=      5-min Rain = 0
KEA1 242349Z 10008KT 13/M06 A301 RMK A01 T01331062  RH  025%=      5-min Rain = 0
KEA1 242350Z 10008KT 13/M06 A301 RMK A01 T01321062  RH  025%=      5-min Rain = 0
KEA1 242351Z 12009KT 13/M06 A301 RMK A01 T01321062  RH  025%=      5-min Rain = 0
KEA1 242352Z 11008KT 13/M06 A301 RMK A01 T01321062  RH  025%=      5-min Rain = 0
KEA1 242353Z 09006KT 13/M06 A301 RMK A01 T01321062  RH  025%=      5-min Rain = 0
KEA1 242354Z 09007KT 13/M06 A301 RMK A01 T01321061  RH  026%=      5-min Rain = 0
KEA1 242355Z 10006KT 13/M06 A301 RMK A01 T01321060  RH  026%=      5-min Rain = 0
KEA1 242356Z 10006KT 13/M06 A301 RMK A01 T01321060  RH  026%=      5-min Rain = 0
KEA1 242357Z 09007KT 13/M06 A301 RMK A01 T01321060  RH  026%=      5-min Rain = 0
KEA1 242358Z 09009KT 13/M06 A301 RMK A01 T01321060  RH  026%=      5-min Rain = 0
KEA1 242359Z 10007KT 13/M06 A301 RMK A01 T01311060  RH  026%=      5-min Rain = 0
KEA1 250000Z 10007KT 13/M06 A301 RMK A01 T01311060  RH  026%=      5-min Rain = 0
KEA1 250001Z 10009KT 13/M06 A3011 RMK A01 T01311060  RH  026%=      5-min Rain = 0
KEA1 250002Z 11008KT 13/M06 A3011 RMK A01 T01311060  RH  026%=      5-min Rain = 0
KEA1 250003Z 10008KT 13/M06 A3011 RMK A01 T01301060  RH  026%=      5-min Rain = 0
KEA1 250004Z 10009KT 13/M06 A3011 RMK A01 T01301060  RH  026%=      5-min Rain = 0
KEA1 250005Z 10008KT 13/M06 A3011 RMK A01 T01301060  RH  026%=      5-min Rain = 0
KEA1 250006Z 10012KT 13/M06 A3011 RMK A01 T01291061  RH  026%=      5-min Rain = 0
KEA1 250007Z 10012KT 13/M06 A3011 RMK A01 T01281063  RH  026%=      5-min Rain = 0
KEA1 250008Z 11011KT 13/M06 A3011 RMK A01 T01271064  RH  026%=      5-min Rain = 0
KEA1 250009Z 11012KT 13/M06 A3011 RMK A01 T01271063  RH  026%=      5-min Rain = 0
KEA1 250010Z 11011KT 13/M06 A3011 RMK A01 T01271064  RH  026%=      5-min Rain = 0
KEA1 250011Z 10008KT 13/M07 A3011 RMK A01 T01261065  RH  026%=      5-min Rain = 0
KEA1 250012Z 10009KT 13/M06 A3011 RMK A01 T01261064  RH  026%=      5-min Rain = 0
KEA1 250013Z 09008KT 13/M07 A3011 RMK A01 T01251065  RH  026%=      5-min Rain = 0
KEA1 250014Z 09009KT 12/M07 A3011 RMK A01 T01241066  RH  026%=      5-min Rain = 0
KEA1 250015Z 09008KT 12/M07 A3011 RMK A01 T01241066  RH  026%=      5-min Rain = 0
KEA1 250016Z 09008KT 12/M07 A3011 RMK A01 T01231066  RH  026%=      5-min Rain = 0
KEA1 250017Z 09007KT 12/M07 A3011 RMK A01 T01221066  RH  026%=      5-min Rain = 0
KEA1 250018Z 09008KT 12/M07 A3011 RMK A01 T01221066  RH  026%=      5-min Rain = 0
KEA1 250019Z 09007KT 12/M07 A3011 RMK A01 T01211066  RH  026%=      5-min Rain = 0
KEA1 250020Z 09006KT 12/M07 A3012 RMK A01 T01211066  RH  027%=      5-min Rain = 0
KEA1 250021Z 10008KT 12/M07 A3012 RMK A01 T01201065  RH  027%=      5-min Rain = 0
KEA1 250022Z 10008KT 12/M07 A3012 RMK A01 T01201065  RH  027%=      5-min Rain = 0
KEA1 250023Z 10009KT 12/M07 A3012 RMK A01 T01201065  RH  027%=      5-min Rain = 0
KEA1 250024Z 10009KT 12/M07 A3012 RMK A01 T01191066  RH  027%=      5-min Rain = 0
KEA1 250025Z 10008KT 12/M07 A3012 RMK A01 T01191066  RH  027%=      5-min Rain = 0
KEA1 250026Z 10008KT 12/M07 A3012 RMK A01 T01191066  RH  027%=      5-min Rain = 0
KEA1 250027Z 10007KT 12/M07 A3012 RMK A01 T01181066  RH  027%=      5-min Rain = 0
KEA1 250028Z 10007KT 12/M07 A3012 RMK A01 T01171066  RH  027%=      5-min Rain = 0
KEA1 250029Z 10007KT 12/M07 A3012 RMK A01 T01161066  RH  027%=      5-min Rain = 0
KEA1 250030Z 09007KT 12/M07 A3012 RMK A01 T01151066  RH  028%=      5-min Rain = 0
KEA1 250031Z 09006KT 11/M07 A3012 RMK A01 T01141066  RH  028%=      5-min Rain = 0
KEA1 250032Z 09008KT 11/M07 A3012 RMK A01 T01131066  RH  028%=      5-min Rain = 0
KEA1 250033Z 10007KT 11/M07 A3012 RMK A01 T01131065  RH  028%=      5-min Rain = 0
KEA1 250034Z 10006KT 11/M07 A3012 RMK A01 T01121065  RH  028%=      5-min Rain = 0
KEA1 250035Z 10006KT 11/M07 A3012 RMK A01 T01111065  RH  028%=      5-min Rain = 0
KEA1 250036Z 09006KT 11/M07 A3012 RMK A01 T01101065  RH  029%=      5-min Rain = 0
KEA1 250037Z 10007KT 11/M07 A3012 RMK A01 T01091065  RH  029%=      5-min Rain = 0
KEA1 250038Z 10007KT 11/M07 A3012 RMK A01 T01081065  RH  029%=      5-min Rain = 0
KEA1 250039Z 10007KT 11/M06 A3012 RMK A01 T01081064  RH  029%=      5-min Rain = 0
KEA1 250040Z 10006KT 11/M06 A3012 RMK A01 T01071064  RH  029%=      5-min Rain = 0
KEA1 250041Z 10007KT 11/M06 A3012 RMK A01 T01061064  RH  030%=      5-min Rain = 0
KEA1 250042Z 09006KT 11/M06 A3012 RMK A01 T01051064  RH  030%=      5-min Rain = 0
KEA1 250043Z 09006KT 10/M06 A3012 RMK A01 T01041064  RH  030%=      5-min Rain = 0
KEA1 250044Z 09006KT 10/M06 A3012 RMK A01 T01031064  RH  030%=      5-min Rain = 0
KEA1 250045Z 10007KT 10/M06 A3012 RMK A01 T01021064  RH  031%=      5-min Rain = 0
KEA1 250046Z 10007KT 10/M06 A3012 RMK A01 T01011063  RH  031%=      5-min Rain = 0
KEA1 250047Z 10006KT 10/M06 A3012 RMK A01 T01011063  RH  031%=      5-min Rain = 0
KEA1 250048Z 10006KT 10/M06 A3012 RMK A01 T01011063  RH  031%=      5-min Rain = 0
KEA1 250049Z 10006KT 10/M06 A3012 RMK A01 T01001063  RH  031%=      5-min Rain = 0
KEA1 250050Z 10006KT 10/M06 A3013 RMK A01 T00981064  RH  031%=      5-min Rain = 0
KEA1 250051Z 10006KT 10/M06 A3013 RMK A01 T00961064  RH  032%=      5-min Rain = 0
KEA1 250052Z 10006KT 10/M06 A3013 RMK A01 T00951063  RH  032%=      5-min Rain = 0
KEA1 250053Z 10006KT 09/M06 A3013 RMK A01 T00941063  RH  032%=      5-min Rain = 0
KEA1 250054Z 10006KT 09/M06 A3013 RMK A01 T00931063  RH  033%=      5-min Rain = 0
KEA1 250055Z 10006KT 09/M06 A3013 RMK A01 T00921063  RH  033%=      5-min Rain = 0
KEA1 250056Z 09005KT 09/M06 A3013 RMK A01 T00911063  RH  033%=      5-min Rain = 0
KEA1 250057Z 10006KT 09/M06 A3013 RMK A01 T00891063  RH  033%=      5-min Rain = 0
KEA1 250058Z 10007KT 09/M06 A3013 RMK A01 T00881063  RH  034%=      5-min Rain = 0
KEA1 250059Z 10007KT 09/M06 A3013 RMK A01 T00881062  RH  034%=      5-min Rain = 0
KEA1 250100Z 10007KT 09/M06 A3013 RMK A01 T00881062  RH  034%=      5-min Rain = 0
KEA1 250101Z 10007KT 09/M06 A3013 RMK A01 T00881062  RH  034%=      5-min Rain = 0
KEA1 250102Z 10006KT 09/M06 A3013 RMK A01 T00881061  RH  034%=      5-min Rain = 0
KEA1 250103Z 10006KT 09/M06 A3013 RMK A01 T00861062  RH  035%=      5-min Rain = 0
KEA1 250104Z 10007KT 09/M06 A3013 RMK A01 T00851061  RH  035%=      5-min Rain = 0
KEA1 250105Z 10007KT 08/M06 A3013 RMK A01 T00841061  RH  035%=      5-min Rain = 0
KEA1 250106Z 10006KT 08/M06 A3013 RMK A01 T00841061  RH  035%=      5-min Rain = 0
KEA1 250107Z 10006KT 08/M06 A3013 RMK A01 T00841061  RH  035%=      5-min Rain = 0
KEA1 250108Z 10006KT 08/M06 A3013 RMK A01 T00831061  RH  035%=      5-min Rain = 0
KEA1 250109Z 10006KT 08/M06 A3013 RMK A01 T00801062  RH  036%=      5-min Rain = 0
KEA1 250110Z 10006KT 08/M06 A3013 RMK A01 T00791062  RH  036%=      5-min Rain = 0
KEA1 250111Z 10006KT 08/M06 A3014 RMK A01 T00781061  RH  037%=      5-min Rain = 0
KEA1 250112Z 10006KT 08/M06 A3014 RMK A01 T00771062  RH  037%=      5-min Rain = 0
KEA1 250113Z 09005KT 08/M06 A3014 RMK A01 T00761061  RH  037%=      5-min Rain = 0
KEA1 250114Z 09005KT 08/M06 A3014 RMK A01 T00761061  RH  037%=      5-min Rain = 0
KEA1 250115Z 09005KT 08/M06 A3014 RMK A01 T00751061  RH  037%=      5-min Rain = 0
KEA1 250116Z 09006KT 07/M06 A3013 RMK A01 T00741061  RH  038%=      5-min Rain = 0
KEA1 250117Z 09006KT 07/M06 A3013 RMK A01 T00731061  RH  038%=      5-min Rain = 0
KEA1 250118Z 09006KT 07/M06 A3013 RMK A01 T00721062  RH  038%=      5-min Rain = 0
KEA1 250119Z 09006KT 07/M06 A3013 RMK A01 T00701061  RH  038%=      5-min Rain = 0
KEA1 250120Z 10007KT 07/M06 A3013 RMK A01 T00701061  RH  039%=      5-min Rain = 0
KEA1 250121Z 09007KT 07/M06 A3013 RMK A01 T00701059  RH  039%=      5-min Rain = 0
KEA1 250122Z 09006KT 07/M06 A3013 RMK A01 T00701059  RH  039%=      5-min Rain = 0
KEA1 250123Z 09006KT 07/M06 A3013 RMK A01 T00701058  RH  039%=      5-min Rain = 0
KEA1 250124Z 09006KT 07/M06 A3013 RMK A01 T00701058  RH  039%=      5-min Rain = 0
KEA1 250125Z 09006KT 07/M06 A3013 RMK A01 T00711058  RH  040%=      5-min Rain = 0
KEA1 250126Z 09006KT 07/M06 A3013 RMK A01 T00701058  RH  040%=      5-min Rain = 0
KEA1 250127Z 09006KT 07/M06 A3013 RMK A01 T00701057  RH  040%=      5-min Rain = 0
KEA1 250128Z 09006KT 07/M06 A3013 RMK A01 T00691057  RH  040%=      5-min Rain = 0
KEA1 250129Z 09006KT 07/M06 A3014 RMK A01 T00701057  RH  040%=      5-min Rain = 0
KEA1 250130Z 09006KT 07/M06 A3014 RMK A01 T00701057  RH  040%=      5-min Rain = 0
KEA1 250131Z 09006KT 07/M06 A3014 RMK A01 T00701057  RH  040%=      5-min Rain = 0
KEA1 250132Z 09006KT 07/M06 A3014 RMK A01 T00701056  RH  040%=      5-min Rain = 0
KEA1 250133Z 09007KT 07/M06 A3014 RMK A01 T00701056  RH  040%=      5-min Rain = 0
KEA1 250134Z 09007KT 07/M06 A3014 RMK A01 T00701056  RH  040%=      5-min Rain = 0
KEA1 250135Z 09007KT 07/M06 A3014 RMK A01 T00701056  RH  040%=      5-min Rain = 0
KEA1 250136Z 09006KT 07/M06 A3014 RMK A01 T00701056  RH  040%=      5-min Rain = 0
KEA1 250137Z 09007KT 07/M06 A3014 RMK A01 T00691057  RH  040%=      5-min Rain = 0
KEA1 250138Z 09006KT 07/M06 A3014 RMK A01 T00691056  RH  040%=      5-min Rain = 0
KEA1 250139Z 09006KT 07/M06 A3014 RMK A01 T00691056  RH  041%=      5-min Rain = 0
KEA1 250140Z 09005KT 07/M06 A3014 RMK A01 T00681056  RH  041%=      5-min Rain = 0
KEA1 250141Z 09005KT 07/M06 A3014 RMK A01 T00681056  RH  041%=      5-min Rain = 0
KEA1 250142Z 09005KT 07/M06 A3014 RMK A01 T00661057  RH  041%=      5-min Rain = 0
KEA1 250143Z 09005KT 07/M06 A3014 RMK A01 T00651057  RH  041%=      5-min Rain = 0
KEA1 250144Z 09005KT 07/M06 A3014 RMK A01 T00651056  RH  042%=      5-min Rain = 0
KEA1 250145Z 09005KT 06/M06 A3014 RMK A01 T00631057  RH  042%=      5-min Rain = 0
KEA1 250146Z 09005KT 06/M06 A3014 RMK A01 T00631057  RH  042%=      5-min Rain = 0
KEA1 250147Z 09006KT 06/M06 A3014 RMK A01 T00621057  RH  042%=      5-min Rain = 0
KEA1 250148Z 09006KT 06/M06 A3015 RMK A01 T00621056  RH  042%=      5-min Rain = 0
KEA1 250149Z 09006KT 06/M06 A3015 RMK A01 T00621057  RH  042%=      5-min Rain = 0
KEA1 250150Z 09006KT 06/M06 A3015 RMK A01 T00621057  RH  042%=      5-min Rain = 0
KEA1 250151Z 09006KT 06/M06 A3015 RMK A01 T00621057  RH  042%=      5-min Rain = 0
KEA1 250152Z 09007KT 06/M06 A3015 RMK A01 T00621057  RH  042%=      5-min Rain = 0
KEA1 250153Z 09006KT 06/M06 A3015 RMK A01 T00631058  RH  042%=      5-min Rain = 0
KEA1 250154Z 09007KT 06/M06 A3015 RMK A01 T00641058  RH  041%=      5-min Rain = 0
KEA1 250155Z 09007KT 07/M06 A3015 RMK A01 T00651058  RH  041%=      5-min Rain = 0
KEA1 250156Z 09007KT 07/M06 A3015 RMK A01 T00661059  RH  040%=      5-min Rain = 0
KEA1 250157Z 09006KT 07/M06 A3015 RMK A01 T00671060  RH  040%=      5-min Rain = 0
KEA1 250158Z 09007KT 07/M06 A3015 RMK A01 T00681060  RH  040%=      5-min Rain = 0
KEA1 250159Z 09007KT 07/M06 A3015 RMK A01 T00691060  RH  039%=      5-min Rain = 0
KEA1 250200Z 09007KT 07/M06 A3015 RMK A01 T00691061  RH  039%=      5-min Rain = 0
KEA1 250201Z 09007KT 07/M06 A3015 RMK A01 T00691062  RH  039%=      5-min Rain = 0
KEA1 250202Z 09007KT 07/M06 A3015 RMK A01 T00691062  RH  039%=      5-min Rain = 0
KEA1 250203Z 09007KT 07/M06 A3015 RMK A01 T00701063  RH  038%=      5-min Rain = 0
KEA1 250204Z 09007KT 07/M06 A3015 RMK A01 T00701063  RH  038%=      5-min Rain = 0
KEA1 250205Z 09007KT 07/M06 A3015 RMK A01 T00701063  RH  038%=      5-min Rain = 0
KEA1 250206Z 09007KT 07/M06 A3015 RMK A01 T00701063  RH  038%=      5-min Rain = 0
KEA1 250207Z 09007KT 07/M06 A3015 RMK A01 T00701064  RH  038%=      5-min Rain = 0
KEA1 250208Z 09007KT 07/M06 A3015 RMK A01 T00691064  RH  038%=      5-min Rain = 0
KEA1 250209Z 09007KT 07/M06 A3015 RMK A01 T00691064  RH  038%=      5-min Rain = 0
KEA1 250210Z 09007KT 07/M06 A3015 RMK A01 T00691064  RH  038%=      5-min Rain = 0
KEA1 250211Z 09007KT 07/M07 A3015 RMK A01 T00701065  RH  038%=      5-min Rain = 0
KEA1 250212Z 09008KT 07/M07 A3015 RMK A01 T00711065  RH  037%=      5-min Rain = 0
KEA1 250213Z 09007KT 07/M07 A3015 RMK A01 T00711065  RH  037%=      5-min Rain = 0
KEA1 250214Z 09007KT 07/M07 A3015 RMK A01 T00711065  RH  037%=      5-min Rain = 0
KEA1 250215Z 09007KT 07/M07 A3015 RMK A01 T00711065  RH  037%=      5-min Rain = 0
KEA1 250216Z 09007KT 07/M07 A3015 RMK A01 T00711066  RH  037%=      5-min Rain = 0
KEA1 250217Z 09007KT 07/M07 A3015 RMK A01 T00711066  RH  037%=      5-min Rain = 0
KEA1 250218Z 09007KT 07/M07 A3015 RMK A01 T00701066  RH  037%=      5-min Rain = 0
KEA1 250219Z 09007KT 07/M07 A3015 RMK A01 T00701067  RH  037%=      5-min Rain = 0
KEA1 250220Z 09007KT 07/M07 A3015 RMK A01 T00701067  RH  037%=      5-min Rain = 0
KEA1 250221Z 09008KT 07/M07 A3015 RMK A01 T00711066  RH  037%=      5-min Rain = 0
KEA1 250222Z 09007KT 07/M07 A3015 RMK A01 T00711067  RH  037%=      5-min Rain = 0
KEA1 250223Z 09008KT 07/M07 A3015 RMK A01 T00701067  RH  037%=      5-min Rain = 0
KEA1 250224Z 09008KT 07/M07 A3015 RMK A01 T00701067  RH  037%=      5-min Rain = 0
KEA1 250225Z 09008KT 07/M07 A3015 RMK A01 T00701067  RH  037%=      5-min Rain = 0
KEA1 250226Z 09008KT 07/M07 A3015 RMK A01 T00701067  RH  037%=      5-min Rain = 0
KEA1 250227Z 09008KT 07/M07 A3015 RMK A01 T00701067  RH  037%=      5-min Rain = 0
KEA1 250228Z 09008KT 07/M07 A3015 RMK A01 T00701067  RH  037%=      5-min Rain = 0
KEA1 250229Z 09008KT 07/M07 A3015 RMK A01 T00701068  RH  037%=      5-min Rain = 0
KEA1 250230Z 09007KT 07/M07 A3015 RMK A01 T00701067  RH  037%=      5-min Rain = 0
KEA1 250231Z 09007KT 07/M07 A3015 RMK A01 T00701068  RH  037%=      5-min Rain = 0
KEA1 250232Z 09007KT 07/M07 A3015 RMK A01 T00701067  RH  037%=      5-min Rain = 0
KEA1 250233Z 08008KT 07/M07 A3015 RMK A01 T00691068  RH  037%=      5-min Rain = 0
KEA1 250234Z 09008KT 07/M07 A3015 RMK A01 T00701068  RH  037%=      5-min Rain = 0
KEA1 250235Z 09008KT 07/M07 A3015 RMK A01 T00701068  RH  037%=      5-min Rain = 0
KEA1 250236Z 09009KT 07/M07 A3015 RMK A01 T00701068  RH  037%=      5-min Rain = 0
KEA1 250237Z 09008KT 07/M07 A3015 RMK A01 T00701068  RH  037%=      5-min Rain = 0
KEA1 250238Z 09008KT 07/M07 A3015 RMK A01 T00701068  RH  037%=      5-min Rain = 0
KEA1 250239Z 09008KT 07/M07 A3015 RMK A01 T00711068  RH  037%=      5-min Rain = 0
KEA1 250240Z 09009KT 07/M07 A3015 RMK A01 T00701068  RH  037%=      5-min Rain = 0
KEA1 250241Z 09008KT 07/M07 A3015 RMK A01 T00711068  RH  037%=      5-min Rain = 0
KEA1 250242Z 09008KT 07/M07 A3015 RMK A01 T00701068  RH  037%=      5-min Rain = 0
KEA1 250243Z 09008KT 07/M07 A3015 RMK A01 T00701068  RH  037%=      5-min Rain = 0
KEA1 250244Z 09010KT 07/M07 A3015 RMK A01 T00701068  RH  037%=      5-min Rain = 0
KEA1 250245Z 09009KT 07/M07 A3015 RMK A01 T00711069  RH  036%=      5-min Rain = 0
KEA1 250246Z 09009KT 07/M07 A3015 RMK A01 T00711069  RH  036%=      5-min Rain = 0
KEA1 250247Z 09009KT 07/M07 A3015 RMK A01 T00711069  RH  036%=      5-min Rain = 0
KEA1 250248Z 09009KT 07/M07 A3015 RMK A01 T00711069  RH  036%=      5-min Rain = 0
KEA1 250249Z 09010KT 07/M07 A3015 RMK A01 T00721069  RH  036%=      5-min Rain = 0
KEA1 250250Z 09010KT 07/M07 A3015 RMK A01 T00721069  RH  036%=      5-min Rain = 0
KEA1 250251Z 09009KT 07/M07 A3015 RMK A01 T00721069  RH  036%=      5-min Rain = 0
KEA1 250252Z 09009KT 07/M07 A3015 RMK A01 T00721069  RH  036%=      5-min Rain = 0
KEA1 250253Z 09010KT 07/M07 A3015 RMK A01 T00721069  RH  036%=      5-min Rain = 0
KEA1 250254Z 09009KT 07/M07 A3015 RMK A01 T00721069  RH  036%=      5-min Rain = 0
KEA1 250255Z 09009KT 07/M07 A3015 RMK A01 T00711069  RH  036%=      5-min Rain = 0
KEA1 250256Z 09010KT 07/M07 A3015 RMK A01 T00711069  RH  036%=      5-min Rain = 0
KEA1 250257Z 09009KT 07/M07 A3015 RMK A01 T00711069  RH  036%=      5-min Rain = 0
KEA1 250258Z 09011KT 07/M07 A3015 RMK A01 T00711070  RH  036%=      5-min Rain = 0
KEA1 250259Z 09010KT 07/M07 A3015 RMK A01 T00711070  RH  036%=      5-min Rain = 0
KEA1 250300Z 09010KT 07/M07 A3015 RMK A01 T00711070  RH  036%=      5-min Rain = 0
KEA1 250301Z 09010KT 07/M07 A3015 RMK A01 T00711070  RH  036%=      5-min Rain = 0
KEA1 250302Z 09010KT 07/M07 A3015 RMK A01 T00711070  RH  036%=      5-min Rain = 0
KEA1 250303Z 09009KT 07/M07 A3015 RMK A01 T00701070  RH  036%=      5-min Rain = 0
KEA1 250304Z 09009KT 07/M07 A3015 RMK A01 T00701070  RH  036%=      5-min Rain = 0
KEA1 250305Z 09009KT 07/M07 A3016 RMK A01 T00691070  RH  036%=      5-min Rain = 0
KEA1 250306Z 09010KT 07/M07 A3016 RMK A01 T00691070  RH  037%=      5-min Rain = 0
KEA1 250307Z 09009KT 07/M07 A3016 RMK A01 T00681070  RH  037%=      5-min Rain = 0
KEA1 250308Z 09009KT 07/M07 A3016 RMK A01 T00671070  RH  037%=      5-min Rain = 0
KEA1 250309Z 09010KT 07/M07 A3016 RMK A01 T00671070  RH  037%=      5-min Rain = 0
KEA1 250310Z 09010KT 07/M07 A3016 RMK A01 T00671070  RH  037%=      5-min Rain = 0
KEA1 250311Z 08010KT 07/M07 A3016 RMK A01 T00671070  RH  037%=      5-min Rain = 0
KEA1 250312Z 09010KT 07/M07 A3016 RMK A01 T00681069  RH  037%=      5-min Rain = 0
KEA1 250313Z 09011KT 07/M07 A3016 RMK A01 T00671070  RH  037%=      5-min Rain = 0
KEA1 250314Z 09009KT 07/M07 A3016 RMK A01 T00671069  RH  037%=      5-min Rain = 0
KEA1 250315Z 09010KT 07/M07 A3016 RMK A01 T00661069  RH  037%=      5-min Rain = 0
KEA1 250316Z 09009KT 07/M07 A3016 RMK A01 T00661069  RH  037%=      5-min Rain = 0
KEA1 250317Z 09009KT 07/M07 A3016 RMK A01 T00651069  RH  038%=      5-min Rain = 0
KEA1 250318Z 09009KT 07/M07 A3016 RMK A01 T00651069  RH  038%=      5-min Rain = 0
KEA1 250319Z 09008KT 06/M07 A3016 RMK A01 T00641069  RH  038%=      5-min Rain = 0
KEA1 250320Z 09009KT 06/M07 A3016 RMK A01 T00641069  RH  038%=      5-min Rain = 0
KEA1 250321Z 09009KT 06/M07 A3016 RMK A01 T00631069  RH  038%=      5-min Rain = 0
KEA1 250322Z 09008KT 06/M07 A3016 RMK A01 T00631068  RH  038%=      5-min Rain = 0
KEA1 250323Z 09009KT 06/M07 A3016 RMK A01 T00631068  RH  038%=      5-min Rain = 0
KEA1 250324Z 09009KT 06/M07 A3016 RMK A01 T00631068  RH  039%=      5-min Rain = 0
KEA1 250325Z 09008KT 06/M07 A3016 RMK A01 T00621068  RH  039%=      5-min Rain = 0
KEA1 250326Z 09009KT 06/M07 A3016 RMK A01 T00631068  RH  039%=      5-min Rain = 0
KEA1 250327Z 09008KT 06/M07 A3016 RMK A01 T00621068  RH  039%=      5-min Rain = 0
KEA1 250328Z 09009KT 06/M07 A3016 RMK A01 T00611068  RH  039%=      5-min Rain = 0
KEA1 250329Z 08009KT 06/M07 A3016 RMK A01 T00611068  RH  039%=      5-min Rain = 0
KEA1 250330Z 09009KT 06/M07 A3016 RMK A01 T00611068  RH  039%=      5-min Rain = 0
KEA1 250331Z 09009KT 06/M07 A3016 RMK A01 T00611068  RH  039%=      5-min Rain = 0
KEA1 250332Z 09010KT 06/M07 A3016 RMK A01 T00611068  RH  039%=      5-min Rain = 0
KEA1 250333Z 09009KT 06/M07 A3016 RMK A01 T00611068  RH  039%=      5-min Rain = 0
KEA1 250334Z 09009KT 06/M07 A3016 RMK A01 T00611068  RH  039%=      5-min Rain = 0
KEA1 250335Z 09009KT 06/M07 A3017 RMK A01 T00611068  RH  039%=      5-min Rain = 0
KEA1 250336Z 09010KT 06/M07 A3017 RMK A01 T00601069  RH  039%=      5-min Rain = 0
KEA1 250337Z 09010KT 06/M07 A3017 RMK A01 T00611069  RH  039%=      5-min Rain = 0
KEA1 250338Z 09009KT 06/M07 A3017 RMK A01 T00611069  RH  039%=      5-min Rain = 0
KEA1 250339Z 09010KT 06/M07 A3017 RMK A01 T00611069  RH  039%=      5-min Rain = 0
KEA1 250340Z 09010KT 06/M07 A3017 RMK A01 T00611070  RH  039%=      5-min Rain = 0
KEA1 250341Z 09010KT 06/M07 A3017 RMK A01 T00621070  RH  038%=      5-min Rain = 0
KEA1 250342Z 09010KT 06/M07 A3017 RMK A01 T00621070  RH  038%=      5-min Rain = 0
KEA1 250343Z 09010KT 06/M07 A3017 RMK A01 T00621070  RH  038%=      5-min Rain = 0
KEA1 250344Z 09010KT 06/M07 A3017 RMK A01 T00611071  RH  038%=      5-min Rain = 0
KEA1 250345Z 09010KT 06/M07 A3017 RMK A01 T00611071  RH  038%=      5-min Rain = 0
KEA1 250346Z 09009KT 06/M07 A3017 RMK A01 T00611071  RH  038%=      5-min Rain = 0
KEA1 250347Z 09009KT 06/M07 A3017 RMK A01 T00611071  RH  038%=      5-min Rain = 0
KEA1 250348Z 09009KT 06/M07 A3017 RMK A01 T00601071  RH  038%=      5-min Rain = 0
KEA1 250349Z 09009KT 06/M07 A3017 RMK A01 T00601071  RH  039%=      5-min Rain = 0
KEA1 250350Z 09010KT 06/M07 A3017 RMK A01 T00591071  RH  039%=      5-min Rain = 0
KEA1 250351Z 09010KT 06/M07 A3017 RMK A01 T00591071  RH  039%=      5-min Rain = 0
KEA1 250352Z 09010KT 06/M07 A3017 RMK A01 T00591071  RH  039%=      5-min Rain = 0
KEA1 250353Z 09009KT 06/M07 A3017 RMK A01 T00591071  RH  039%=      5-min Rain = 0
KEA1 250354Z 09010KT 06/M07 A3017 RMK A01 T00601071  RH  038%=      5-min Rain = 0
KEA1 250355Z 09009KT 06/M07 A3017 RMK A01 T00601071  RH  038%=      5-min Rain = 0
KEA1 250356Z 09009KT 06/M07 A3017 RMK A01 T00601071  RH  038%=      5-min Rain = 0
KEA1 250357Z 09009KT 06/M07 A3017 RMK A01 T00601071  RH  038%=      5-min Rain = 0
KEA1 250358Z 09009KT 06/M07 A3017 RMK A01 T00601071  RH  038%=      5-min Rain = 0
KEA1 250359Z 09011KT 06/M07 A3017 RMK A01 T00601071  RH  039%=      5-min Rain = 0
KEA1 250400Z 09009G14KT 06/M07 A3017 RMK A01 T00591072  RH  038%=      5-min Rain = 0
KEA1 250401Z 09009KT 06/M07 A3016 RMK A01 T00591072  RH  038%=      5-min Rain = 0
KEA1 250402Z 09009KT 06/M07 A3016 RMK A01 T00591072  RH  038%=      5-min Rain = 0
KEA1 250403Z 09009KT 06/M07 A3016 RMK A01 T00591072  RH  038%=      5-min Rain = 0
KEA1 250404Z 09009KT 06/M07 A3016 RMK A01 T00581072  RH  039%=      5-min Rain = 0
KEA1 250405Z 09010KT 06/M07 A3016 RMK A01 T00581072  RH  039%=      5-min Rain = 0
KEA1 250406Z 09010KT 06/M07 A3016 RMK A01 T00571071  RH  039%=      5-min Rain = 0
KEA1 250407Z 09008KT 06/M07 A3016 RMK A01 T00571071  RH  039%=      5-min Rain = 0
KEA1 250408Z 09009KT 06/M07 A3016 RMK A01 T00581071  RH  039%=      5-min Rain = 0
KEA1 250409Z 09009KT 06/M07 A3016 RMK A01 T00571072  RH  039%=      5-min Rain = 0
KEA1 250410Z 09008KT 06/M07 A3016 RMK A01 T00561072  RH  039%=      5-min Rain = 0
KEA1 250411Z 09009KT 06/M07 A3017 RMK A01 T00551072  RH  039%=      5-min Rain = 0
KEA1 250412Z 09008KT 06/M07 A3017 RMK A01 T00551072  RH  039%=      5-min Rain = 0
KEA1 250413Z 09009KT 06/M07 A3017 RMK A01 T00551072  RH  040%=      5-min Rain = 0
KEA1 250414Z 09009KT 05/M07 A3017 RMK A01 T00541072  RH  040%=      5-min Rain = 0
KEA1 250415Z 09010KT 05/M07 A3017 RMK A01 T00541072  RH  040%=      5-min Rain = 0
KEA1 250416Z 09009KT 06/M07 A3017 RMK A01 T00551072  RH  040%=      5-min Rain = 0
KEA1 250417Z 09009KT 06/M07 A3017 RMK A01 T00551072  RH  039%=      5-min Rain = 0
KEA1 250418Z 09009KT 06/M07 A3016 RMK A01 T00551072  RH  040%=      5-min Rain = 0
KEA1 250419Z 09008KT 05/M07 A3016 RMK A01 T00541072  RH  040%=      5-min Rain = 0
KEA1 250420Z 09009KT 05/M07 A3016 RMK A01 T00541073  RH  040%=      5-min Rain = 0
KEA1 250421Z 09009KT 05/M07 A3017 RMK A01 T00541072  RH  040%=      5-min Rain = 0
KEA1 250422Z 09009KT 05/M07 A3017 RMK A01 T00541073  RH  040%=      5-min Rain = 0
KEA1 250423Z 09010KT 05/M07 A3017 RMK A01 T00541073  RH  039%=      5-min Rain = 0
KEA1 250424Z 09009KT 05/M07 A3017 RMK A01 T00541073  RH  039%=      5-min Rain = 0
KEA1 250425Z 09009KT 05/M07 A3017 RMK A01 T00541072  RH  040%=      5-min Rain = 0
KEA1 250426Z 10009KT 05/M07 A3017 RMK A01 T00541072  RH  040%=      5-min Rain = 0
KEA1 250427Z 09010KT 05/M07 A3017 RMK A01 T00531072  RH  040%=      5-min Rain = 0
KEA1 250428Z 09010KT 05/M07 A3017 RMK A01 T00531072  RH  040%=      5-min Rain = 0
KEA1 250429Z 09010KT 05/M07 A3017 RMK A01 T00541073  RH  040%=      5-min Rain = 0
KEA1 250430Z 10009KT 06/M07 A3017 RMK A01 T00551072  RH  040%=      5-min Rain = 0
KEA1 250431Z 10010KT 05/M07 A3017 RMK A01 T00541072  RH  040%=      5-min Rain = 0
KEA1 250432Z 10011KT 05/M07 A3017 RMK A01 T00541072  RH  040%=      5-min Rain = 0
KEA1 250433Z 10010KT 06/M07 A3017 RMK A01 T00551072  RH  040%=      5-min Rain = 0
KEA1 250434Z 10011KT 05/M07 A3017 RMK A01 T00541073  RH  039%=      5-min Rain = 0
KEA1 250435Z 09009KT 05/M07 A3017 RMK A01 T00541073  RH  039%=      5-min Rain = 0
KEA1 250436Z 10010KT 05/M07 A3017 RMK A01 T00531073  RH  040%=      5-min Rain = 0
KEA1 250437Z 10011KT 05/M07 A3017 RMK A01 T00531073  RH  040%=      5-min Rain = 0
KEA1 250438Z 09009KT 05/M07 A3017 RMK A01 T00531073  RH  040%=      5-min Rain = 0
KEA1 250439Z 10011KT 05/M07 A3017 RMK A01 T00531073  RH  040%=      5-min Rain = 0
KEA1 250440Z 10011KT 05/M07 A3017 RMK A01 T00531073  RH  040%=      5-min Rain = 0
KEA1 250441Z 10010KT 05/M07 A3017 RMK A01 T00531072  RH  040%=      5-min Rain = 0
KEA1 250442Z 10011KT 05/M07 A3017 RMK A01 T00531073  RH  040%=      5-min Rain = 0
KEA1 250443Z 10010KT 05/M07 A3017 RMK A01 T00531073  RH  040%=      5-min Rain = 0
KEA1 250444Z 10010KT 05/M07 A3017 RMK A01 T00521073  RH  040%=      5-min Rain = 0
KEA1 250445Z 10011KT 05/M07 A3017 RMK A01 T00521073  RH  040%=      5-min Rain = 0
KEA1 250446Z 10010KT 05/M07 A3017 RMK A01 T00511073  RH  040%=      5-min Rain = 0
KEA1 250447Z 10011KT 05/M07 A3017 RMK A01 T00511073  RH  040%=      5-min Rain = 0
KEA1 250448Z 10010KT 05/M07 A3017 RMK A01 T00511073  RH  040%=      5-min Rain = 0
KEA1 250449Z 10010KT 05/M07 A3017 RMK A01 T00511073  RH  040%=      5-min Rain = 0
KEA1 250450Z 10009KT 05/M07 A3017 RMK A01 T00501073  RH  040%=      5-min Rain = 0
KEA1 250451Z 10012KT 05/M07 A3017 RMK A01 T00501073  RH  040%=      5-min Rain = 0
KEA1 250452Z 10010KT 05/M07 A3017 RMK A01 T00501073  RH  040%=      5-min Rain = 0
KEA1 250453Z 10010KT 05/M07 A3017 RMK A01 T00511073  RH  040%=      5-min Rain = 0
KEA1 250454Z 10011KT 05/M07 A3017 RMK A01 T00511074  RH  040%=      5-min Rain = 0
KEA1 250455Z 10010KT 05/M07 A3017 RMK A01 T00511074  RH  040%=      5-min Rain = 0
KEA1 250456Z 10011KT 05/M07 A3017 RMK A01 T00511074  RH  040%=      5-min Rain = 0
KEA1 250457Z 10011G17KT 05/M08 A3017 RMK A01 T00511075  RH  040%=      5-min Rain = 0
KEA1 250458Z 10012KT 05/M08 A3017 RMK A01 T00521075  RH  040%=      5-min Rain = 0
KEA1 250459Z 10013KT 05/M08 A3017 RMK A01 T00521075  RH  039%=      5-min Rain = 0
KEA1 250500Z 10010KT 05/M08 A3017 RMK A01 T00531075  RH  039%=      5-min Rain = 0
KEA1 250501Z 10011KT 05/M08 A3017 RMK A01 T00531075  RH  039%=      5-min Rain = 0
KEA1 250502Z 10011KT 05/M08 A3017 RMK A01 T00521076  RH  039%=      5-min Rain = 0
KEA1 250503Z 10011KT 05/M08 A3017 RMK A01 T00521076  RH  039%=      5-min Rain = 0
KEA1 250504Z 10011KT 05/M08 A3017 RMK A01 T00531076  RH  039%=      5-min Rain = 0
KEA1 250505Z 10012KT 05/M08 A3017 RMK A01 T00521076  RH  039%=      5-min Rain = 0
KEA1 250506Z 10011KT 05/M08 A3017 RMK A01 T00521076  RH  039%=      5-min Rain = 0
KEA1 250507Z 09011KT 05/M08 A3017 RMK A01 T00531076  RH  039%=      5-min Rain = 0
KEA1 250508Z 09011KT 05/M08 A3017 RMK A01 T00521076  RH  039%=      5-min Rain = 0
KEA1 250509Z 10011KT 05/M08 A3017 RMK A01 T00521077  RH  039%=      5-min Rain = 0
KEA1 250510Z 10010KT 05/M08 A3017 RMK A01 T00511077  RH  039%=      5-min Rain = 0
KEA1 250511Z 10009KT 05/M08 A3017 RMK A01 T00511077  RH  039%=      5-min Rain = 0
KEA1 250512Z 10010KT 05/M08 A3017 RMK A01 T00501077  RH  039%=      5-min Rain = 0
KEA1 250513Z 10010KT 05/M08 A3017 RMK A01 T00491077  RH  040%=      5-min Rain = 0
KEA1 250514Z 10010KT 05/M08 A3018 RMK A01 T00491077  RH  040%=      5-min Rain = 0
KEA1 250515Z 10011KT 05/M08 A3018 RMK A01 T00491077  RH  040%=      5-min Rain = 0
KEA1 250516Z 10011KT 05/M08 A3018 RMK A01 T00491077  RH  040%=      5-min Rain = 0
KEA1 250517Z 10010KT 05/M08 A3018 RMK A01 T00491077  RH  040%=      5-min Rain = 0
KEA1 250518Z 10010KT 05/M08 A3018 RMK A01 T00491077  RH  040%=      5-min Rain = 0
KEA1 250519Z 10010KT 05/M08 A3018 RMK A01 T00481077  RH  040%=      5-min Rain = 0
KEA1 250520Z 10010KT 05/M08 A3018 RMK A01 T00481077  RH  040%=      5-min Rain = 0
KEA1 250521Z 10011KT 05/M08 A3018 RMK A01 T00481077  RH  040%=      5-min Rain = 0
KEA1 250522Z 10009KT 05/M08 A3018 RMK A01 T00481077  RH  040%=      5-min Rain = 0
KEA1 250523Z 10010KT 05/M08 A3017 RMK A01 T00471077  RH  040%=      5-min Rain = 0
KEA1 250524Z 09011KT 05/M08 A3017 RMK A01 T00471077  RH  040%=      5-min Rain = 0
KEA1 250525Z 09009KT 05/M08 A3018 RMK A01 T00471077  RH  040%=      5-min Rain = 0
KEA1 250526Z 10010KT 05/M08 A3018 RMK A01 T00471077  RH  040%=      5-min Rain = 0
KEA1 250527Z 10011KT 05/M08 A3018 RMK A01 T00471077  RH  040%=      5-min Rain = 0
KEA1 250528Z 10011KT 05/M08 A3018 RMK A01 T00471077  RH  040%=      5-min Rain = 0
KEA1 250529Z 10009KT 05/M08 A3018 RMK A01 T00471077  RH  040%=      5-min Rain = 0
KEA1 250530Z 10010KT 05/M08 A3018 RMK A01 T00461077  RH  040%=      5-min Rain = 0
KEA1 250531Z 10010KT 05/M08 A3018 RMK A01 T00461077  RH  041%=      5-min Rain = 0
KEA1 250532Z 10010KT 05/M08 A3018 RMK A01 T00461077  RH  040%=      5-min Rain = 0
KEA1 250533Z 10010KT 05/M08 A3018 RMK A01 T00461077  RH  040%=      5-min Rain = 0
KEA1 250534Z 10010KT 05/M08 A3018 RMK A01 T00461077  RH  040%=      5-min Rain = 0
KEA1 250535Z 09009KT 05/M08 A3018 RMK A01 T00461077  RH  041%=      5-min Rain = 0
KEA1 250536Z 09009KT 05/M08 A3018 RMK A01 T00461077  RH  041%=      5-min Rain = 0
KEA1 250537Z 09010KT 05/M08 A3018 RMK A01 T00461077  RH  041%=      5-min Rain = 0
KEA1 250538Z 09010KT 05/M08 A3018 RMK A01 T00461077  RH  041%=      5-min Rain = 0
KEA1 250539Z 09009KT 05/M08 A3018 RMK A01 T00461077  RH  041%=      5-min Rain = 0
KEA1 250540Z 09008KT 05/M08 A3018 RMK A01 T00461077  RH  041%=      5-min Rain = 0
KEA1 250541Z 09008KT 05/M08 A3018 RMK A01 T00451077  RH  041%=      5-min Rain = 0
KEA1 250542Z 09009KT 05/M08 A3018 RMK A01 T00451076  RH  041%=      5-min Rain = 0
KEA1 250543Z 09009KT 04/M08 A3018 RMK A01 T00441076  RH  041%=      5-min Rain = 0
KEA1 250544Z 09009KT 04/M08 A3018 RMK A01 T00441076  RH  041%=      5-min Rain = 0
KEA1 250545Z 09008KT 04/M08 A3018 RMK A01 T00431077  RH  041%=      5-min Rain = 0
KEA1 250546Z 09009KT 04/M08 A3018 RMK A01 T00431076  RH  041%=      5-min Rain = 0
KEA1 250547Z 09009KT 04/M08 A3018 RMK A01 T00441076  RH  041%=      5-min Rain = 0
KEA1 250548Z 09009KT 04/M08 A3018 RMK A01 T00431076  RH  042%=      5-min Rain = 0
KEA1 250549Z 09009KT 04/M08 A3018 RMK A01 T00431076  RH  042%=      5-min Rain = 0
KEA1 250550Z 09009KT 04/M08 A3018 RMK A01 T00421076  RH  042%=      5-min Rain = 0
KEA1 250551Z 09009KT 04/M08 A3018 RMK A01 T00421076  RH  042%=      5-min Rain = 0
KEA1 250552Z 09008KT 04/M08 A3018 RMK A01 T00421076  RH  042%=      5-min Rain = 0
KEA1 250553Z 09008KT 04/M08 A3018 RMK A01 T00411076  RH  042%=      5-min Rain = 0
KEA1 250554Z 09009KT 04/M08 A3018 RMK A01 T00411075  RH  042%=      5-min Rain = 0
KEA1 250555Z 09009KT 04/M08 A3019 RMK A01 T00411075  RH  042%=      5-min Rain = 0
KEA1 250556Z 09009KT 04/M08 A3019 RMK A01 T00411076  RH  042%=      5-min Rain = 0
KEA1 250557Z 09010KT 04/M08 A3019 RMK A01 T00411075  RH  042%=      5-min Rain = 0
KEA1 250558Z 10010KT 04/M08 A3019 RMK A01 T00421075  RH  042%=      5-min Rain = 0
KEA1 250559Z 09009KT 04/M08 A3019 RMK A01 T00431075  RH  042%=      5-min Rain = 0

Page generated in 0.0658 seconds.